Time,TemperatureF,DewpointF,PressureIn,WindDirection,WindDirectionDegrees,WindSpeedMPH,WindSpeedGustMPH,Humidity,HourlyPrecipIn,Conditions,Clouds,dailyrainin,SoftwareType,DateUTC
2013-04-21 00:00:00,34.4,23.1,30.30,ESE,115,0.0,4.0,63,0.00,,,0.00,VWS V14.01,2013-04-21 04:00:00,
2013-04-21 00:01:00,34.4,23.1,30.30,ESE,115,0.0,2.0,63,0.00,,,0.00,VWS V14.01,2013-04-21 04:01:00,
2013-04-21 00:05:00,34.4,23.5,30.30,ESE,113,1.0,4.0,64,0.00,,,0.00,VWS V14.01,2013-04-21 04:05:00,
2013-04-21 00:06:00,34.4,23.5,30.30,ESE,113,0.0,1.0,64,0.00,,,0.00,VWS V14.01,2013-04-21 04:06:00,
2013-04-21 00:10:00,34.3,23.8,30.31,East,99,1.0,4.0,65,0.00,,,0.00,VWS V14.01,2013-04-21 04:10:00,
2013-04-21 00:11:00,34.3,23.8,30.31,East,99,0.0,1.0,65,0.00,,,0.00,VWS V14.01,2013-04-21 04:11:00,
2013-04-21 00:12:00,34.3,23.8,30.31,East,99,0.0,1.0,65,0.00,,,0.00,VWS V14.01,2013-04-21 04:12:00,
2013-04-21 00:15:00,34.3,24.1,30.31,East,99,0.0,1.0,66,0.00,,,0.00,VWS V14.01,2013-04-21 04:15:00,
2013-04-21 00:16:00,34.2,24.0,30.31,East,99,0.0,1.0,66,0.00,,,0.00,VWS V14.01,2013-04-21 04:16:00,
2013-04-21 00:17:00,34.2,24.0,30.31,East,99,2.0,3.0,66,0.00,,,0.00,VWS V14.01,2013-04-21 04:17:00,
2013-04-21 00:20:00,34.2,24.0,30.31,East,83,1.0,4.0,66,0.00,,,0.00,VWS V14.01,2013-04-21 04:20:00,
2013-04-21 00:21:00,34.2,24.0,30.31,East,83,0.0,2.0,66,0.00,,,0.00,VWS V14.01,2013-04-21 04:21:00,
2013-04-21 00:22:00,34.2,24.0,30.31,East,83,1.0,2.0,66,0.00,,,0.00,VWS V14.01,2013-04-21 04:22:00,
2013-04-21 00:23:00,34.2,24.0,30.31,East,83,0.0,2.0,66,0.00,,,0.00,VWS V14.01,2013-04-21 04:23:00,
2013-04-21 00:25:00,34.1,24.0,30.31,East,83,0.0,3.0,66,0.00,,,0.00,VWS V14.01,2013-04-21 04:25:00,
2013-04-21 00:26:00,34.1,24.3,30.31,East,83,0.0,2.0,67,0.00,,,0.00,VWS V14.01,2013-04-21 04:26:00,
2013-04-21 00:27:00,34.1,24.3,30.31,East,83,0.0,2.0,67,0.00,,,0.00,VWS V14.01,2013-04-21 04:27:00,
2013-04-21 00:28:00,34.1,24.3,30.31,NNE,33,2.0,3.0,67,0.00,,,0.00,VWS V14.01,2013-04-21 04:28:00,
2013-04-21 00:30:00,34.1,24.3,30.31,NNE,33,0.0,3.0,67,0.00,,,0.00,VWS V14.01,2013-04-21 04:30:00,
2013-04-21 00:31:00,34.1,24.3,30.31,NNE,33,2.0,2.0,67,0.00,,,0.00,VWS V14.01,2013-04-21 04:31:00,
2013-04-21 00:32:00,34.0,24.6,30.31,NE,34,2.0,3.0,68,0.00,,,0.00,VWS V14.01,2013-04-21 04:32:00,
2013-04-21 00:33:00,34.0,24.6,30.31,NE,34,3.0,3.0,68,0.00,,,0.00,VWS V14.01,2013-04-21 04:33:00,
2013-04-21 00:35:00,34.0,24.6,30.31,ESE,119,2.0,4.0,68,0.00,,,0.00,VWS V14.01,2013-04-21 04:35:00,
2013-04-21 00:36:00,33.9,24.1,30.31,ESE,119,1.0,3.0,67,0.00,,,0.00,VWS V14.01,2013-04-21 04:36:00,
2013-04-21 00:37:00,33.9,24.1,30.32,ESE,119,0.0,3.0,67,0.00,,,0.00,VWS V14.01,2013-04-21 04:37:00,
2013-04-21 00:38:00,33.9,24.1,30.32,ESE,119,1.0,3.0,67,0.00,,,0.00,VWS V14.01,2013-04-21 04:38:00,
2013-04-21 00:40:00,33.8,24.0,30.32,ESE,120,0.0,3.0,67,0.00,,,0.00,VWS V14.01,2013-04-21 04:40:00,
2013-04-21 00:41:00,33.8,24.4,30.32,ESE,119,1.0,2.0,68,0.00,,,0.00,VWS V14.01,2013-04-21 04:41:00,
2013-04-21 00:42:00,33.8,24.4,30.32,ESE,119,0.0,2.0,68,0.00,,,0.00,VWS V14.01,2013-04-21 04:42:00,
2013-04-21 00:43:00,33.8,25.7,30.32,ESE,119,0.0,2.0,72,0.00,,,0.00,VWS V14.01,2013-04-21 04:43:00,
2013-04-21 00:45:00,33.8,24.4,30.32,ESE,119,0.0,2.0,68,0.00,,,0.00,VWS V14.01,2013-04-21 04:45:00,
2013-04-21 00:47:00,33.8,24.4,30.32,ESE,119,0.0,2.0,68,0.00,,,0.00,VWS V14.01,2013-04-21 04:47:00,
2013-04-21 00:48:00,33.8,25.7,30.32,ESE,119,0.0,2.0,72,0.00,,,0.00,VWS V14.01,2013-04-21 04:48:00,
2013-04-21 00:50:00,33.8,24.0,30.32,ESE,119,1.0,2.0,67,0.00,,,0.00,VWS V14.01,2013-04-21 04:50:00,
2013-04-21 00:52:00,33.8,23.7,30.32,ESE,119,1.0,3.0,66,0.00,,,0.00,VWS V14.01,2013-04-21 04:52:00,
2013-04-21 00:53:00,33.8,24.0,30.32,ESE,120,0.0,3.0,67,0.00,,,0.00,VWS V14.01,2013-04-21 04:53:00,
2013-04-21 00:54:00,33.8,23.7,30.33,SSE,150,0.0,3.0,66,0.00,,,0.00,VWS V14.01,2013-04-21 04:54:00,
2013-04-21 00:55:00,33.8,23.3,30.33,SSE,152,1.0,3.0,65,0.00,,,0.00,VWS V14.01,2013-04-21 04:55:00,
2013-04-21 00:57:00,33.8,23.3,30.33,SSE,153,0.0,2.0,65,0.00,,,0.00,VWS V14.01,2013-04-21 04:57:00,
2013-04-21 00:58:00,33.8,23.3,30.33,SSE,153,1.0,2.0,65,0.00,,,0.00,VWS V14.01,2013-04-21 04:58:00,
2013-04-21 00:59:00,33.9,23.4,30.33,ESE,119,1.0,3.0,65,0.00,,,0.00,VWS V14.01,2013-04-21 04:59:00,
2013-04-21 01:00:00,33.9,23.4,30.33,SE,129,3.0,4.0,65,0.00,,,0.00,VWS V14.01,2013-04-21 05:00:00,
2013-04-21 01:02:00,33.9,23.4,30.33,SE,144,1.0,3.0,65,0.00,,,0.00,VWS V14.01,2013-04-21 05:02:00,
2013-04-21 01:03:00,33.9,23.4,30.33,ESE,114,0.0,3.0,65,0.00,,,0.00,VWS V14.01,2013-04-21 05:03:00,
2013-04-21 01:04:00,33.9,23.4,30.33,ESE,114,0.0,3.0,65,0.00,,,0.00,VWS V14.01,2013-04-21 05:04:00,
2013-04-21 01:05:00,33.9,23.4,30.33,ESE,114,1.0,3.0,65,0.00,,,0.00,VWS V14.01,2013-04-21 05:05:00,
2013-04-21 01:07:00,33.8,22.9,30.34,SE,128,1.0,5.0,64,0.00,,,0.00,VWS V14.01,2013-04-21 05:07:00,
2013-04-21 01:08:00,33.8,22.5,30.34,ESE,111,4.0,7.0,63,0.00,,,0.00,VWS V14.01,2013-04-21 05:08:00,
2013-04-21 01:09:00,33.7,21.7,30.34,ESE,116,6.0,9.0,61,0.00,,,0.00,VWS V14.01,2013-04-21 05:09:00,
2013-04-21 01:10:00,33.7,21.7,30.34,ESE,109,4.0,9.0,61,0.00,,,0.00,VWS V14.01,2013-04-21 05:10:00,
2013-04-21 01:12:00,33.6,21.2,30.34,SE,134,6.0,7.0,60,0.00,,,0.00,VWS V14.01,2013-04-21 05:12:00,
2013-04-21 01:13:00,33.6,21.2,30.34,SE,132,2.0,7.0,60,0.00,,,0.00,VWS V14.01,2013-04-21 05:13:00,
2013-04-21 01:14:00,33.5,21.1,30.34,SE,132,3.0,7.0,60,0.00,,,0.00,VWS V14.01,2013-04-21 05:14:00,
2013-04-21 01:15:00,33.5,21.1,30.34,SE,132,0.0,7.0,60,0.00,,,0.00,VWS V14.01,2013-04-21 05:15:00,
2013-04-21 01:17:00,33.5,20.7,30.34,East,98,5.0,5.0,59,0.00,,,0.00,VWS V14.01,2013-04-21 05:17:00,
2013-04-21 01:18:00,33.5,21.1,30.34,ENE,57,0.0,5.0,60,0.00,,,0.00,VWS V14.01,2013-04-21 05:18:00,
2013-04-21 01:19:00,33.4,21.0,30.34,ENE,59,1.0,5.0,60,0.00,,,0.00,VWS V14.01,2013-04-21 05:19:00,
2013-04-21 01:20:00,33.4,21.0,30.34,ENE,59,1.0,5.0,60,0.00,,,0.00,VWS V14.01,2013-04-21 05:20:00,
2013-04-21 01:22:00,33.4,20.6,30.34,East,92,3.0,5.0,59,0.00,,,0.00,VWS V14.01,2013-04-21 05:22:00,
2013-04-21 01:23:00,33.4,20.6,30.34,East,92,0.0,5.0,59,0.00,,,0.00,VWS V14.01,2013-04-21 05:23:00,
2013-04-21 01:24:00,33.4,21.0,30.34,ENE,74,3.0,5.0,60,0.00,,,0.00,VWS V14.01,2013-04-21 05:24:00,
2013-04-21 01:25:00,33.4,21.0,30.34,ENE,78,1.0,2.0,60,0.00,,,0.00,VWS V14.01,2013-04-21 05:25:00,
2013-04-21 01:27:00,33.4,21.0,30.34,ESE,118,5.0,7.0,60,0.00,,,0.00,VWS V14.01,2013-04-21 05:27:00,
2013-04-21 01:28:00,33.3,20.5,30.34,ENE,71,4.0,7.0,59,0.00,,,0.00,VWS V14.01,2013-04-21 05:28:00,
2013-04-21 01:29:00,33.3,20.5,30.34,East,94,4.0,7.0,59,0.00,,,0.00,VWS V14.01,2013-04-21 05:29:00,
2013-04-21 01:30:00,33.3,20.9,30.34,SSE,159,1.0,1.0,60,0.00,,,0.00,VWS V14.01,2013-04-21 05:30:00,
2013-04-21 01:33:00,33.3,20.9,30.34,SE,144,0.0,5.0,60,0.00,,,0.00,VWS V14.01,2013-04-21 05:33:00,
2013-04-21 01:34:00,33.3,20.9,30.34,SE,144,0.0,5.0,60,0.00,,,0.00,VWS V14.01,2013-04-21 05:34:00,
2013-04-21 01:35:00,33.3,20.9,30.34,ESE,111,1.0,2.0,60,0.00,,,0.00,VWS V14.01,2013-04-21 05:35:00,
2013-04-21 01:38:00,33.2,20.4,30.35,SW,233,4.0,4.0,59,0.00,,,0.00,VWS V14.01,2013-04-21 05:38:00,
2013-04-21 01:39:00,33.2,20.4,30.35,WSW,237,3.0,4.0,59,0.00,,,0.00,VWS V14.01,2013-04-21 05:39:00,
2013-04-21 01:40:00,33.2,20.4,30.35,WSW,252,5.0,5.0,59,0.00,,,0.00,VWS V14.01,2013-04-21 05:40:00,
2013-04-21 01:43:00,33.2,20.4,30.34,SW,222,0.0,5.0,59,0.00,,,0.00,VWS V14.01,2013-04-21 05:43:00,
2013-04-21 01:44:00,33.1,19.9,30.34,East,87,4.0,5.0,58,0.00,,,0.00,VWS V14.01,2013-04-21 05:44:00,
2013-04-21 01:45:00,33.1,19.9,30.34,ESE,102,2.0,4.0,58,0.00,,,0.00,VWS V14.01,2013-04-21 05:45:00,
2013-04-21 01:48:00,33.1,19.9,30.35,ESE,112,0.0,4.0,58,0.00,,,0.00,VWS V14.01,2013-04-21 05:48:00,
2013-04-21 01:49:00,33.1,20.4,30.35,ESE,109,0.0,4.0,59,0.00,,,0.00,VWS V14.01,2013-04-21 05:49:00,
2013-04-21 01:50:00,33.1,20.4,30.35,South,190,0.0,4.0,59,0.00,,,0.00,VWS V14.01,2013-04-21 05:50:00,
2013-04-21 01:53:00,33.0,19.9,30.35,South,186,2.0,4.0,58,0.00,,,0.00,VWS V14.01,2013-04-21 05:53:00,
2013-04-21 01:54:00,33.0,20.2,30.35,East,94,2.0,6.0,59,0.00,,,0.00,VWS V14.01,2013-04-21 05:54:00,
2013-04-21 01:55:00,33.0,19.9,30.35,SSW,202,2.0,3.0,58,0.00,,,0.00,VWS V14.01,2013-04-21 05:55:00,
2013-04-21 01:56:00,33.0,19.9,30.35,SSW,202,1.0,3.0,58,0.00,,,0.00,VWS V14.01,2013-04-21 05:56:00,
2013-04-21 01:58:00,33.0,19.4,30.35,SE,132,0.0,4.0,57,0.00,,,0.00,VWS V14.01,2013-04-21 05:58:00,
2013-04-21 01:59:00,33.0,19.4,30.35,SE,132,0.0,4.0,57,0.00,,,0.00,VWS V14.01,2013-04-21 05:59:00,
2013-04-21 02:00:00,33.0,19.4,30.35,SE,132,2.0,4.0,57,0.00,,,0.00,VWS V14.01,2013-04-21 06:00:00,
2013-04-21 02:01:00,33.0,19.9,30.35,SE,140,0.0,2.0,58,0.00,,,0.00,VWS V14.01,2013-04-21 06:01:00,
2013-04-21 02:03:00,32.9,19.8,30.36,SE,140,0.0,2.0,58,0.00,,,0.00,VWS V14.01,2013-04-21 06:03:00,
2013-04-21 02:04:00,32.9,19.4,30.36,SSE,155,3.0,4.0,57,0.00,,,0.00,VWS V14.01,2013-04-21 06:04:00,
2013-04-21 02:05:00,32.9,19.4,30.36,SSE,148,3.0,4.0,57,0.00,,,0.00,VWS V14.01,2013-04-21 06:05:00,
2013-04-21 02:06:00,32.9,19.4,30.36,SSE,148,1.0,3.0,57,0.00,,,0.00,VWS V14.01,2013-04-21 06:06:00,
2013-04-21 02:08:00,32.9,19.4,30.36,East,88,2.0,10.0,57,0.00,,,0.00,VWS V14.01,2013-04-21 06:08:00,
2013-04-21 02:09:00,32.9,18.9,30.36,ESE,115,4.0,10.0,56,0.00,,,0.00,VWS V14.01,2013-04-21 06:09:00,
2013-04-21 02:10:00,32.9,18.9,30.36,ESE,114,2.0,3.0,56,0.00,,,0.00,VWS V14.01,2013-04-21 06:10:00,
2013-04-21 02:11:00,32.9,19.4,30.36,ESE,115,1.0,3.0,57,0.00,,,0.00,VWS V14.01,2013-04-21 06:11:00,
2013-04-21 02:13:00,32.9,19.4,30.36,SE,133,2.0,5.0,57,0.00,,,0.00,VWS V14.01,2013-04-21 06:13:00,
2013-04-21 02:14:00,32.9,19.4,30.36,SE,132,1.0,5.0,57,0.00,,,0.00,VWS V14.01,2013-04-21 06:14:00,
2013-04-21 02:15:00,32.9,19.4,30.36,SE,131,2.0,2.0,57,0.00,,,0.00,VWS V14.01,2013-04-21 06:15:00,
2013-04-21 02:16:00,32.8,19.3,30.36,SE,131,1.0,2.0,57,0.00,,,0.00,VWS V14.01,2013-04-21 06:16:00,
2013-04-21 02:17:00,32.9,19.4,30.36,SE,131,0.0,2.0,57,0.00,,,0.00,VWS V14.01,2013-04-21 06:17:00,
2013-04-21 02:18:00,32.9,19.8,30.36,SE,130,0.0,2.0,58,0.00,,,0.00,VWS V14.01,2013-04-21 06:18:00,
2013-04-21 02:19:00,32.9,19.8,30.36,SE,131,0.0,2.0,58,0.00,,,0.00,VWS V14.01,2013-04-21 06:19:00,
2013-04-21 02:20:00,32.9,19.8,30.36,SE,131,0.0,0.0,58,0.00,,,0.00,VWS V14.01,2013-04-21 06:20:00,
2013-04-21 02:21:00,32.8,19.7,30.36,SW,229,0.0,2.0,58,0.00,,,0.00,VWS V14.01,2013-04-21 06:21:00,
2013-04-21 02:22:00,32.8,19.7,30.36,SW,229,3.0,3.0,58,0.00,,,0.00,VWS V14.01,2013-04-21 06:22:00,
2013-04-21 02:24:00,32.8,19.7,30.36,South,187,1.0,3.0,58,0.00,,,0.00,VWS V14.01,2013-04-21 06:24:00,
2013-04-21 02:25:00,32.8,19.7,30.36,SE,125,1.0,3.0,58,0.00,,,0.00,VWS V14.01,2013-04-21 06:25:00,
2013-04-21 02:26:00,32.8,19.7,30.37,SE,126,4.0,4.0,58,0.00,,,0.00,VWS V14.01,2013-04-21 06:26:00,
2013-04-21 02:27:00,32.7,20.0,30.37,SE,125,0.0,4.0,59,0.00,,,0.00,VWS V14.01,2013-04-21 06:27:00,
2013-04-21 02:29:00,32.7,19.6,30.37,SE,129,2.0,4.0,58,0.00,,,0.00,VWS V14.01,2013-04-21 06:29:00,
2013-04-21 02:30:00,32.7,19.6,30.37,SE,144,8.0,8.0,58,0.00,,,0.00,VWS V14.01,2013-04-21 06:30:00,
2013-04-21 02:31:00,32.7,19.2,30.37,ESE,117,1.0,8.0,57,0.00,,,0.00,VWS V14.01,2013-04-21 06:31:00,
2013-04-21 02:32:00,32.7,19.6,30.37,ESE,117,1.0,8.0,58,0.00,,,0.00,VWS V14.01,2013-04-21 06:32:00,
2013-04-21 02:34:00,32.7,19.6,30.37,ESE,107,0.0,8.0,58,0.00,,,0.00,VWS V14.01,2013-04-21 06:34:00,
2013-04-21 02:35:00,32.7,19.6,30.37,ESE,107,0.0,0.0,58,0.00,,,0.00,VWS V14.01,2013-04-21 06:35:00,
2013-04-21 02:37:00,32.7,19.6,30.37,ESE,123,1.0,2.0,58,0.00,,,0.00,VWS V14.01,2013-04-21 06:37:00,
2013-04-21 02:39:00,32.7,19.6,30.37,SW,234,3.0,4.0,58,0.00,,,0.00,VWS V14.01,2013-04-21 06:39:00,
2013-04-21 02:40:00,32.7,19.6,30.37,SW,222,1.0,2.0,58,0.00,,,0.00,VWS V14.01,2013-04-21 06:40:00,
2013-04-21 02:42:00,32.7,20.0,30.37,SW,217,1.0,3.0,59,0.00,,,0.00,VWS V14.01,2013-04-21 06:42:00,
2013-04-21 02:44:00,32.6,19.9,30.37,SSW,210,2.0,3.0,59,0.00,,,0.00,VWS V14.01,2013-04-21 06:44:00,
2013-04-21 02:45:00,32.6,19.9,30.37,SSW,210,0.0,1.0,59,0.00,,,0.00,VWS V14.01,2013-04-21 06:45:00,
2013-04-21 02:46:00,32.6,19.5,30.37,ESE,119,6.0,6.0,58,0.00,,,0.00,VWS V14.01,2013-04-21 06:46:00,
2013-04-21 02:47:00,32.6,19.9,30.37,SSE,155,2.0,6.0,59,0.00,,,0.00,VWS V14.01,2013-04-21 06:47:00,
2013-04-21 02:49:00,32.6,19.9,30.37,SSW,203,7.0,7.0,59,0.00,,,0.00,VWS V14.01,2013-04-21 06:49:00,
2013-04-21 02:50:00,32.6,19.9,30.37,SSE,153,2.0,3.0,59,0.00,,,0.00,VWS V14.01,2013-04-21 06:50:00,
2013-04-21 02:51:00,32.5,19.4,30.37,SW,232,1.0,6.0,58,0.00,,,0.00,VWS V14.01,2013-04-21 06:51:00,
2013-04-21 02:52:00,32.5,19.0,30.37,WSW,248,4.0,7.0,57,0.00,,,0.00,VWS V14.01,2013-04-21 06:52:00,
2013-04-21 02:54:00,32.5,19.4,30.37,WSW,245,1.0,7.0,58,0.00,,,0.00,VWS V14.01,2013-04-21 06:54:00,
2013-04-21 02:55:00,32.5,19.8,30.38,NW,304,0.0,4.0,59,0.00,,,0.00,VWS V14.01,2013-04-21 06:55:00,
2013-04-21 02:56:00,32.5,19.8,30.38,WSW,245,2.0,6.0,59,0.00,,,0.00,VWS V14.01,2013-04-21 06:56:00,
2013-04-21 02:57:00,32.5,19.4,30.38,West,261,1.0,6.0,58,0.00,,,0.00,VWS V14.01,2013-04-21 06:57:00,
2013-04-21 02:59:00,32.5,19.4,30.38,West,278,1.0,6.0,58,0.00,,,0.00,VWS V14.01,2013-04-21 06:59:00,
2013-04-21 03:00:00,32.5,19.4,30.38,West,277,0.0,6.0,58,0.00,,,0.00,VWS V14.01,2013-04-21 07:00:00,
2013-04-21 03:01:00,32.5,19.4,30.38,West,281,0.0,2.0,58,0.00,,,0.00,VWS V14.01,2013-04-21 07:01:00,
2013-04-21 03:02:00,32.5,19.8,30.38,SE,142,5.0,5.0,59,0.00,,,0.00,VWS V14.01,2013-04-21 07:02:00,
2013-04-21 03:03:00,32.5,19.8,30.38,WSW,246,0.0,5.0,59,0.00,,,0.00,VWS V14.01,2013-04-21 07:03:00,
2013-04-21 03:04:00,32.5,19.4,30.38,ESE,109,2.0,5.0,58,0.00,,,0.00,VWS V14.01,2013-04-21 07:04:00,
2013-04-21 03:05:00,32.5,19.4,30.38,ESE,109,0.0,5.0,58,0.00,,,0.00,VWS V14.01,2013-04-21 07:05:00,
2013-04-21 03:06:00,32.5,19.8,30.38,ESE,123,0.0,3.0,59,0.00,,,0.00,VWS V14.01,2013-04-21 07:06:00,
2013-04-21 03:07:00,32.5,19.8,30.38,ESE,123,0.0,3.0,59,0.00,,,0.00,VWS V14.01,2013-04-21 07:07:00,
2013-04-21 03:08:00,32.5,19.8,30.38,ESE,123,0.0,3.0,59,0.00,,,0.00,VWS V14.01,2013-04-21 07:08:00,
2013-04-21 03:09:00,32.5,19.8,30.38,ESE,117,1.0,3.0,59,0.00,,,0.00,VWS V14.01,2013-04-21 07:09:00,
2013-04-21 03:10:00,32.5,19.8,30.38,ESE,117,2.0,3.0,59,0.00,,,0.00,VWS V14.01,2013-04-21 07:10:00,
2013-04-21 03:11:00,32.5,19.8,30.38,WSW,252,0.0,4.0,59,0.00,,,0.00,VWS V14.01,2013-04-21 07:11:00,
2013-04-21 03:12:00,32.4,19.7,30.38,WSW,252,1.0,4.0,59,0.00,,,0.00,VWS V14.01,2013-04-21 07:12:00,
2013-04-21 03:13:00,32.5,19.8,30.38,SW,217,1.0,5.0,59,0.00,,,0.00,VWS V14.01,2013-04-21 07:13:00,
2013-04-21 03:14:00,32.4,19.7,30.38,SW,216,0.0,5.0,59,0.00,,,0.00,VWS V14.01,2013-04-21 07:14:00,
2013-04-21 03:15:00,32.4,19.7,30.38,SW,216,0.0,5.0,59,0.00,,,0.00,VWS V14.01,2013-04-21 07:15:00,
2013-04-21 03:16:00,32.4,19.7,30.38,SW,216,0.0,1.0,59,0.00,,,0.00,VWS V14.01,2013-04-21 07:16:00,
2013-04-21 03:17:00,32.4,19.7,30.38,SW,216,1.0,1.0,59,0.00,,,0.00,VWS V14.01,2013-04-21 07:17:00,
2013-04-21 03:18:00,32.4,19.7,30.39,SW,216,1.0,3.0,59,0.00,,,0.00,VWS V14.01,2013-04-21 07:18:00,
2013-04-21 03:19:00,32.4,19.7,30.38,ESE,115,2.0,3.0,59,0.00,,,0.00,VWS V14.01,2013-04-21 07:19:00,
2013-04-21 03:20:00,32.4,19.7,30.38,ESE,115,2.0,3.0,59,0.00,,,0.00,VWS V14.01,2013-04-21 07:20:00,
2013-04-21 03:21:00,32.4,20.1,30.38,NW,321,3.0,4.0,60,0.00,,,0.00,VWS V14.01,2013-04-21 07:21:00,
2013-04-21 03:22:00,32.4,20.1,30.38,West,264,4.0,6.0,60,0.00,,,0.00,VWS V14.01,2013-04-21 07:22:00,
2013-04-21 03:23:00,32.4,20.1,30.39,SW,232,1.0,6.0,60,0.00,,,0.00,VWS V14.01,2013-04-21 07:23:00,
2013-04-21 03:24:00,32.4,20.1,30.39,SW,229,2.0,6.0,60,0.00,,,0.00,VWS V14.01,2013-04-21 07:24:00,
2013-04-21 03:25:00,32.4,20.1,30.39,SE,124,1.0,6.0,60,0.00,,,0.00,VWS V14.01,2013-04-21 07:25:00,
2013-04-21 03:26:00,32.4,20.1,30.39,South,182,2.0,4.0,60,0.00,,,0.00,VWS V14.01,2013-04-21 07:26:00,
2013-04-21 03:27:00,32.4,19.7,30.39,WSW,244,0.0,4.0,59,0.00,,,0.00,VWS V14.01,2013-04-21 07:27:00,
2013-04-21 03:28:00,32.4,19.7,30.39,WSW,244,0.0,4.0,59,0.00,,,0.00,VWS V14.01,2013-04-21 07:28:00,
2013-04-21 03:29:00,32.4,19.7,30.39,SE,132,1.0,4.0,59,0.00,,,0.00,VWS V14.01,2013-04-21 07:29:00,
2013-04-21 03:30:00,32.4,20.1,30.40,SSW,192,3.0,7.0,60,0.00,,,0.00,VWS V14.01,2013-04-21 07:30:00,
2013-04-21 03:31:00,32.3,19.2,30.39,SW,232,1.0,7.0,58,0.00,,,0.00,VWS V14.01,2013-04-21 07:31:00,
2013-04-21 03:32:00,32.3,19.6,30.40,SE,142,1.0,7.0,59,0.00,,,0.00,VWS V14.01,2013-04-21 07:32:00,
2013-04-21 03:33:00,32.3,19.6,30.39,SW,216,3.0,7.0,59,0.00,,,0.00,VWS V14.01,2013-04-21 07:33:00,
2013-04-21 03:34:00,32.3,19.2,30.40,SW,221,1.0,7.0,58,0.00,,,0.00,VWS V14.01,2013-04-21 07:34:00,
2013-04-21 03:35:00,32.3,20.0,30.39,SW,221,1.0,1.0,60,0.00,,,0.00,VWS V14.01,2013-04-21 07:35:00,
2013-04-21 03:36:00,32.3,20.0,30.39,SW,221,1.0,2.0,60,0.00,,,0.00,VWS V14.01,2013-04-21 07:36:00,
2013-04-21 03:37:00,32.3,20.0,30.40,ESE,108,2.0,5.0,60,0.00,,,0.00,VWS V14.01,2013-04-21 07:37:00,
2013-04-21 03:38:00,32.3,19.6,30.40,South,191,3.0,5.0,59,0.00,,,0.00,VWS V14.01,2013-04-21 07:38:00,
2013-04-21 03:39:00,32.3,19.6,30.40,SSW,211,0.0,5.0,59,0.00,,,0.00,VWS V14.01,2013-04-21 07:39:00,
2013-04-21 03:40:00,32.3,19.6,30.40,SSW,196,4.0,4.0,59,0.00,,,0.00,VWS V14.01,2013-04-21 07:40:00,
2013-04-21 03:41:00,32.2,19.5,30.40,SSW,199,1.0,4.0,59,0.00,,,0.00,VWS V14.01,2013-04-21 07:41:00,
2013-04-21 03:43:00,32.2,19.9,30.40,East,82,0.0,4.0,60,0.00,,,0.00,VWS V14.01,2013-04-21 07:43:00,
2013-04-21 03:44:00,32.2,19.9,30.40,East,82,1.0,4.0,60,0.00,,,0.00,VWS V14.01,2013-04-21 07:44:00,
2013-04-21 03:45:00,32.2,19.9,30.40,SSW,193,1.0,3.0,60,0.00,,,0.00,VWS V14.01,2013-04-21 07:45:00,
2013-04-21 03:46:00,32.2,19.9,30.40,SW,232,1.0,6.0,60,0.00,,,0.00,VWS V14.01,2013-04-21 07:46:00,
2013-04-21 03:48:00,32.2,19.5,30.40,SW,232,0.0,6.0,59,0.00,,,0.00,VWS V14.01,2013-04-21 07:48:00,
2013-04-21 03:49:00,32.2,19.9,30.40,SW,232,0.0,6.0,60,0.00,,,0.00,VWS V14.01,2013-04-21 07:49:00,
2013-04-21 03:50:00,32.2,19.9,30.40,SW,232,0.0,6.0,60,0.00,,,0.00,VWS V14.01,2013-04-21 07:50:00,
2013-04-21 03:51:00,32.1,19.8,30.40,SW,232,0.0,0.0,60,0.00,,,0.00,VWS V14.01,2013-04-21 07:51:00,
2013-04-21 03:53:00,32.1,19.8,30.40,SW,224,2.0,2.0,60,0.00,,,0.00,VWS V14.01,2013-04-21 07:53:00,
2013-04-21 03:54:00,32.1,19.8,30.40,ESE,118,1.0,3.0,60,0.00,,,0.00,VWS V14.01,2013-04-21 07:54:00,
2013-04-21 03:55:00,32.1,19.8,30.40,ESE,121,0.0,3.0,60,0.00,,,0.00,VWS V14.01,2013-04-21 07:55:00,
2013-04-21 03:56:00,32.1,20.2,30.41,ESE,121,0.0,0.0,61,0.00,,,0.00,VWS V14.01,2013-04-21 07:56:00,
2013-04-21 03:58:00,32.1,20.2,30.41,ESE,121,0.0,2.0,61,0.00,,,0.00,VWS V14.01,2013-04-21 07:58:00,
2013-04-21 03:59:00,32.1,20.2,30.41,ESE,121,0.0,2.0,61,0.00,,,0.00,VWS V14.01,2013-04-21 07:59:00,
2013-04-21 04:00:00,32.1,20.6,30.41,ESE,121,0.0,2.0,62,0.00,,,0.00,VWS V14.01,2013-04-21 08:00:00,
2013-04-21 04:01:00,32.1,20.2,30.41,South,173,4.0,5.0,61,0.00,,,0.00,VWS V14.01,2013-04-21 08:01:00,
2013-04-21 04:03:00,32.1,20.6,30.41,South,175,0.0,5.0,62,0.00,,,0.00,VWS V14.01,2013-04-21 08:03:00,
2013-04-21 04:04:00,32.1,20.6,30.41,South,175,0.0,5.0,62,0.00,,,0.00,VWS V14.01,2013-04-21 08:04:00,
2013-04-21 04:05:00,32.1,20.9,30.41,South,175,1.0,5.0,63,0.00,,,0.00,VWS V14.01,2013-04-21 08:05:00,
2013-04-21 04:06:00,32.1,20.9,30.41,East,99,2.0,4.0,63,0.00,,,0.00,VWS V14.01,2013-04-21 08:06:00,
2013-04-21 04:07:00,32.1,20.9,30.41,East,101,0.0,4.0,63,0.00,,,0.00,VWS V14.01,2013-04-21 08:07:00,
2013-04-21 04:08:00,32.1,21.3,30.41,East,100,0.0,4.0,64,0.00,,,0.00,VWS V14.01,2013-04-21 08:08:00,
2013-04-21 04:09:00,32.1,21.3,30.41,East,100,0.0,4.0,64,0.00,,,0.00,VWS V14.01,2013-04-21 08:09:00,
2013-04-21 04:10:00,32.1,21.3,30.41,SSE,163,1.0,4.0,64,0.00,,,0.00,VWS V14.01,2013-04-21 08:10:00,
2013-04-21 04:11:00,32.1,21.3,30.41,West,267,4.0,11.0,64,0.00,,,0.00,VWS V14.01,2013-04-21 08:11:00,
2013-04-21 04:12:00,32.0,20.9,30.41,WSW,240,3.0,11.0,63,0.00,,,0.00,VWS V14.01,2013-04-21 08:12:00,
2013-04-21 04:13:00,31.9,21.1,30.42,SW,230,12.0,12.0,64,0.00,,,0.00,VWS V14.01,2013-04-21 08:13:00,
2013-04-21 04:14:00,31.9,21.1,30.42,West,259,2.0,13.0,64,0.00,,,0.00,VWS V14.01,2013-04-21 08:14:00,
2013-04-21 04:15:00,31.9,20.8,30.42,West,259,3.0,13.0,63,0.00,,,0.00,VWS V14.01,2013-04-21 08:15:00,
2013-04-21 04:16:00,31.7,20.6,30.42,NW,317,1.0,12.0,63,0.00,,,0.00,VWS V14.01,2013-04-21 08:16:00,
2013-04-21 04:17:00,31.7,20.9,30.42,West,261,0.0,12.0,64,0.00,,,0.00,VWS V14.01,2013-04-21 08:17:00,
2013-04-21 04:19:00,31.6,20.8,30.42,WSW,240,5.0,12.0,64,0.00,,,0.00,VWS V14.01,2013-04-21 08:19:00,
2013-04-21 04:20:00,31.5,20.4,30.42,WSW,242,4.0,4.0,63,0.00,,,0.00,VWS V14.01,2013-04-21 08:20:00,
2013-04-21 04:21:00,31.5,20.7,30.42,WSW,242,0.0,4.0,64,0.00,,,0.00,VWS V14.01,2013-04-21 08:21:00,
2013-04-21 04:22:00,31.4,20.6,30.42,SW,221,3.0,4.0,64,0.00,,,0.00,VWS V14.01,2013-04-21 08:22:00,
2013-04-21 04:24:00,31.4,20.6,30.42,WSW,242,7.0,7.0,64,0.00,,,0.00,VWS V14.01,2013-04-21 08:24:00,
2013-04-21 04:25:00,31.3,20.2,30.43,SW,229,6.0,9.0,63,0.00,,,0.00,VWS V14.01,2013-04-21 08:25:00,
2013-04-21 04:26:00,31.2,20.1,30.42,SSW,200,9.0,11.0,63,0.00,,,0.00,VWS V14.01,2013-04-21 08:26:00,
2013-04-21 04:28:00,31.2,19.7,30.43,West,273,1.0,11.0,62,0.00,,,0.00,VWS V14.01,2013-04-21 08:28:00,
2013-04-21 04:29:00,31.1,20.0,30.43,WNW,284,2.0,11.0,63,0.00,,,0.00,VWS V14.01,2013-04-21 08:29:00,
2013-04-21 04:30:00,31.1,20.0,30.43,South,175,3.0,5.0,63,0.00,,,0.00,VWS V14.01,2013-04-21 08:30:00,
2013-04-21 04:31:00,31.0,19.9,30.43,South,175,0.0,5.0,63,0.00,,,0.00,VWS V14.01,2013-04-21 08:31:00,
2013-04-21 04:32:00,31.0,19.5,30.43,SW,230,3.0,5.0,62,0.00,,,0.00,VWS V14.01,2013-04-21 08:32:00,
2013-04-21 04:33:00,31.0,19.5,30.43,SW,232,1.0,5.0,62,0.00,,,0.00,VWS V14.01,2013-04-21 08:33:00,
2013-04-21 04:34:00,30.9,19.4,30.43,SW,234,0.0,5.0,62,0.00,,,0.00,VWS V14.01,2013-04-21 08:34:00,
2013-04-21 04:35:00,30.9,19.8,30.43,West,271,0.0,2.0,63,0.00,,,0.00,VWS V14.01,2013-04-21 08:35:00,
2013-04-21 04:36:00,30.9,19.8,30.43,West,261,3.0,3.0,63,0.00,,,0.00,VWS V14.01,2013-04-21 08:36:00,
2013-04-21 04:37:00,30.8,19.3,30.43,SE,144,3.0,7.0,62,0.00,,,0.00,VWS V14.01,2013-04-21 08:37:00,
2013-04-21 04:38:00,30.7,19.2,30.43,SW,221,1.0,7.0,62,0.00,,,0.00,VWS V14.01,2013-04-21 08:38:00,
2013-04-21 04:39:00,30.7,18.9,30.43,WSW,256,1.0,10.0,61,0.00,,,0.00,VWS V14.01,2013-04-21 08:39:00,
2013-04-21 04:40:00,30.7,18.9,30.43,WSW,256,1.0,10.0,61,0.00,,,0.00,VWS V14.01,2013-04-21 08:40:00,
2013-04-21 04:41:00,30.6,19.1,30.43,East,90,3.0,4.0,62,0.00,,,0.00,VWS V14.01,2013-04-21 08:41:00,
2013-04-21 04:43:00,30.5,19.4,30.43,SW,229,2.0,4.0,63,0.00,,,0.00,VWS V14.01,2013-04-21 08:43:00,
2013-04-21 04:44:00,30.4,19.3,30.43,SW,229,0.0,6.0,63,0.00,,,0.00,VWS V14.01,2013-04-21 08:44:00,
2013-04-21 04:45:00,30.4,19.3,30.43,SW,229,0.0,6.0,63,0.00,,,0.00,VWS V14.01,2013-04-21 08:45:00,
2013-04-21 04:46:00,30.3,19.2,30.44,SSW,206,3.0,9.0,63,0.00,,,0.00,VWS V14.01,2013-04-21 08:46:00,
2013-04-21 04:48:00,30.2,19.1,30.44,South,186,2.0,9.0,63,0.00,,,0.00,VWS V14.01,2013-04-21 08:48:00,
2013-04-21 04:49:00,30.1,19.0,30.44,SSW,198,1.0,11.0,63,0.00,,,0.00,VWS V14.01,2013-04-21 08:49:00,
2013-04-21 04:50:00,30.1,18.7,30.44,SSW,203,1.0,11.0,62,0.00,,,0.00,VWS V14.01,2013-04-21 08:50:00,
2013-04-21 04:51:00,30.0,19.0,30.44,SW,233,4.0,4.0,63,0.00,,,0.00,VWS V14.01,2013-04-21 08:51:00,
2013-04-21 04:53:00,29.9,18.5,30.44,SW,224,0.0,5.0,62,0.00,,,0.00,VWS V14.01,2013-04-21 08:53:00,
2013-04-21 04:54:00,29.9,18.9,30.44,SW,224,0.0,5.0,63,0.00,,,0.00,VWS V14.01,2013-04-21 08:54:00,
2013-04-21 04:55:00,29.9,18.9,30.44,SW,224,0.0,5.0,63,0.00,,,0.00,VWS V14.01,2013-04-21 08:55:00,
2013-04-21 04:56:00,29.8,18.8,30.44,South,186,0.0,5.0,63,0.00,,,0.00,VWS V14.01,2013-04-21 08:56:00,
2013-04-21 04:57:00,29.8,18.8,30.44,South,186,1.0,5.0,63,0.00,,,0.00,VWS V14.01,2013-04-21 08:57:00,
2013-04-21 04:59:00,29.7,18.7,30.45,WSW,238,0.0,5.0,63,0.00,,,0.00,VWS V14.01,2013-04-21 08:59:00,
2013-04-21 05:00:00,29.6,18.9,30.45,WSW,238,0.0,5.0,64,0.00,,,0.00,VWS V14.01,2013-04-21 09:00:00,
2013-04-21 05:01:00,29.6,18.9,30.45,SW,228,10.0,10.0,64,0.00,,,0.00,VWS V14.01,2013-04-21 09:01:00,
2013-04-21 05:02:00,29.5,18.5,30.45,WNW,288,3.0,10.0,63,0.00,,,0.00,VWS V14.01,2013-04-21 09:02:00,
2013-04-21 05:04:00,29.4,18.4,30.45,West,277,0.0,10.0,63,0.00,,,0.00,VWS V14.01,2013-04-21 09:04:00,
2013-04-21 05:05:00,29.4,18.7,30.45,WSW,251,4.0,10.0,64,0.00,,,0.00,VWS V14.01,2013-04-21 09:05:00,
2013-04-21 05:06:00,29.3,18.3,30.45,West,261,3.0,5.0,63,0.00,,,0.00,VWS V14.01,2013-04-21 09:06:00,
2013-04-21 05:08:00,29.3,18.3,30.45,SW,218,3.0,5.0,63,0.00,,,0.00,VWS V14.01,2013-04-21 09:08:00,
2013-04-21 05:09:00,29.3,18.3,30.45,WSW,246,4.0,5.0,63,0.00,,,0.00,VWS V14.01,2013-04-21 09:09:00,
2013-04-21 05:10:00,29.2,18.2,30.45,SW,234,5.0,11.0,63,0.00,,,0.00,VWS V14.01,2013-04-21 09:10:00,
2013-04-21 05:11:00,29.2,18.2,30.45,SW,235,0.0,5.0,63,0.00,,,0.00,VWS V14.01,2013-04-21 09:11:00,
2013-04-21 05:13:00,29.2,18.2,30.45,WSW,242,0.0,5.0,63,0.00,,,0.00,VWS V14.01,2013-04-21 09:13:00,
2013-04-21 05:14:00,29.1,18.5,30.45,WSW,246,2.0,5.0,64,0.00,,,0.00,VWS V14.01,2013-04-21 09:14:00,
2013-04-21 05:15:00,29.0,18.4,30.45,WSW,245,0.0,2.0,64,0.00,,,0.00,VWS V14.01,2013-04-21 09:15:00,
2013-04-21 05:16:00,29.0,18.0,30.45,West,271,2.0,3.0,63,0.00,,,0.00,VWS V14.01,2013-04-21 09:16:00,
2013-04-21 05:18:00,28.9,17.9,30.46,West,273,0.0,5.0,63,0.00,,,0.00,VWS V14.01,2013-04-21 09:18:00,
2013-04-21 05:19:00,28.9,17.9,30.46,West,261,4.0,5.0,63,0.00,,,0.00,VWS V14.01,2013-04-21 09:19:00,
2013-04-21 05:20:00,28.8,17.8,30.46,SW,219,3.0,5.0,63,0.00,,,0.00,VWS V14.01,2013-04-21 09:20:00,
2013-04-21 05:21:00,28.8,17.8,30.46,SW,217,4.0,5.0,63,0.00,,,0.00,VWS V14.01,2013-04-21 09:21:00,
2013-04-21 05:23:00,28.8,17.8,30.46,West,261,3.0,6.0,63,0.00,,,0.00,VWS V14.01,2013-04-21 09:23:00,
2013-04-21 05:24:00,28.8,17.8,30.46,SW,230,1.0,6.0,63,0.00,,,0.00,VWS V14.01,2013-04-21 09:24:00,
2013-04-21 05:25:00,28.8,17.8,30.46,West,279,0.0,2.0,63,0.00,,,0.00,VWS V14.01,2013-04-21 09:25:00,
2013-04-21 05:27:00,28.8,17.8,30.46,SW,233,4.0,4.0,63,0.00,,,0.00,VWS V14.01,2013-04-21 09:27:00,
2013-04-21 05:28:00,28.8,17.8,30.46,SW,233,2.0,5.0,63,0.00,,,0.00,VWS V14.01,2013-04-21 09:28:00,
2013-04-21 05:30:00,28.8,17.8,30.46,SW,232,0.0,2.0,63,0.00,,,0.00,VWS V14.01,2013-04-21 09:30:00,
2013-04-21 05:31:00,28.7,17.7,30.46,SSE,163,3.0,4.0,63,0.00,,,0.00,VWS V14.01,2013-04-21 09:31:00,
2013-04-21 05:32:00,28.7,17.7,30.46,SSE,167,1.0,4.0,63,0.00,,,0.00,VWS V14.01,2013-04-21 09:32:00,
2013-04-21 05:33:00,28.7,18.1,30.47,SSE,166,0.0,4.0,64,0.00,,,0.00,VWS V14.01,2013-04-21 09:33:00,
2013-04-21 05:35:00,28.7,18.1,30.47,West,263,3.0,4.0,64,0.00,,,0.00,VWS V14.01,2013-04-21 09:35:00,
2013-04-21 05:36:00,28.6,17.6,30.47,SW,234,0.0,4.0,63,0.00,,,0.00,VWS V14.01,2013-04-21 09:36:00,
2013-04-21 05:37:00,28.6,17.6,30.47,WSW,245,2.0,6.0,63,0.00,,,0.00,VWS V14.01,2013-04-21 09:37:00,
2013-04-21 05:38:00,28.5,17.5,30.47,WSW,245,1.0,6.0,63,0.00,,,0.00,VWS V14.01,2013-04-21 09:38:00,
2013-04-21 05:40:00,28.5,17.5,30.47,WSW,240,0.0,0.0,63,0.00,,,0.00,VWS V14.01,2013-04-21 09:40:00,
2013-04-21 05:41:00,28.4,17.4,30.47,SSW,213,1.0,5.0,63,0.00,,,0.00,VWS V14.01,2013-04-21 09:41:00,
2013-04-21 05:42:00,28.4,17.4,30.47,SSW,213,0.0,5.0,63,0.00,,,0.00,VWS V14.01,2013-04-21 09:42:00,
2013-04-21 05:44:00,28.4,17.8,30.47,SW,232,1.0,5.0,64,0.00,,,0.00,VWS V14.01,2013-04-21 09:44:00,
2013-04-21 05:45:00,28.4,17.8,30.48,SW,232,0.0,1.0,64,0.00,,,0.00,VWS V14.01,2013-04-21 09:45:00,
2013-04-21 05:46:00,28.4,18.1,30.48,SW,232,0.0,1.0,65,0.00,,,0.00,VWS V14.01,2013-04-21 09:46:00,
2013-04-21 05:47:00,28.4,18.1,30.48,SW,235,3.0,6.0,65,0.00,,,0.00,VWS V14.01,2013-04-21 09:47:00,
2013-04-21 05:49:00,28.3,17.7,30.48,WSW,241,1.0,7.0,64,0.00,,,0.00,VWS V14.01,2013-04-21 09:49:00,
2013-04-21 05:50:00,28.3,17.7,30.48,WSW,241,0.0,0.0,64,0.00,,,0.00,VWS V14.01,2013-04-21 09:50:00,
2013-04-21 05:51:00,28.3,17.7,30.48,SSW,213,3.0,4.0,64,0.00,,,0.00,VWS V14.01,2013-04-21 09:51:00,
2013-04-21 05:52:00,28.3,17.7,30.48,South,174,7.0,7.0,64,0.00,,,0.00,VWS V14.01,2013-04-21 09:52:00,
2013-04-21 05:54:00,28.3,17.7,30.48,WSW,242,2.0,7.0,64,0.00,,,0.00,VWS V14.01,2013-04-21 09:54:00,
2013-04-21 05:55:00,28.3,17.7,30.48,WSW,238,5.0,9.0,64,0.00,,,0.00,VWS V14.01,2013-04-21 09:55:00,
2013-04-21 05:56:00,28.3,17.7,30.48,SW,232,1.0,9.0,64,0.00,,,0.00,VWS V14.01,2013-04-21 09:56:00,
2013-04-21 05:57:00,28.2,17.6,30.48,South,170,9.0,12.0,64,0.00,,,0.00,VWS V14.01,2013-04-21 09:57:00,
2013-04-21 06:00:00,28.3,17.7,30.49,SW,223,3.0,3.0,64,0.00,,,0.00,VWS V14.01,2013-04-21 10:00:00,
2013-04-21 06:01:00,28.3,17.3,30.48,SW,230,3.0,10.0,63,0.00,,,0.00,VWS V14.01,2013-04-21 10:01:00,
2013-04-21 06:03:00,28.3,17.3,30.49,SSW,212,0.0,10.0,63,0.00,,,0.00,VWS V14.01,2013-04-21 10:03:00,
2013-04-21 06:05:00,28.3,17.3,30.49,WSW,248,2.0,5.0,63,0.00,,,0.00,VWS V14.01,2013-04-21 10:05:00,
2013-04-21 06:06:00,28.3,17.3,30.49,WSW,250,5.0,5.0,63,0.00,,,0.00,VWS V14.01,2013-04-21 10:06:00,
2013-04-21 06:07:00,28.3,17.3,30.49,WSW,241,2.0,5.0,63,0.00,,,0.00,VWS V14.01,2013-04-21 10:07:00,
2013-04-21 06:08:00,28.2,17.6,30.49,WSW,241,4.0,5.0,64,0.00,,,0.00,VWS V14.01,2013-04-21 10:08:00,
2013-04-21 06:10:00,28.2,17.2,30.49,South,183,2.0,2.0,63,0.00,,,0.00,VWS V14.01,2013-04-21 10:10:00,
2013-04-21 06:11:00,28.2,17.2,30.49,WSW,257,3.0,7.0,63,0.00,,,0.00,VWS V14.01,2013-04-21 10:11:00,
2013-04-21 06:12:00,28.2,17.2,30.49,WSW,254,2.0,7.0,63,0.00,,,0.00,VWS V14.01,2013-04-21 10:12:00,
2013-04-21 06:14:00,28.2,17.6,30.50,SW,228,7.0,9.0,64,0.00,,,0.00,VWS V14.01,2013-04-21 10:14:00,
2013-04-21 06:15:00,28.2,17.6,30.50,SSW,200,4.0,4.0,64,0.00,,,0.00,VWS V14.01,2013-04-21 10:15:00,
2013-04-21 06:16:00,28.2,17.6,30.50,SSE,165,4.0,4.0,64,0.00,,,0.00,VWS V14.01,2013-04-21 10:16:00,
2013-04-21 06:17:00,28.2,17.6,30.50,SW,218,6.0,7.0,64,0.00,,,0.00,VWS V14.01,2013-04-21 10:17:00,
2013-04-21 06:19:00,28.1,17.5,30.50,SW,228,3.0,7.0,64,0.00,,,0.00,VWS V14.01,2013-04-21 10:19:00,
2013-04-21 06:20:00,28.1,17.5,30.50,SW,227,2.0,2.0,64,0.00,,,0.00,VWS V14.01,2013-04-21 10:20:00,
2013-04-21 06:21:00,28.1,17.5,30.50,WSW,242,3.0,5.0,64,0.00,,,0.00,VWS V14.01,2013-04-21 10:21:00,
2013-04-21 06:22:00,28.1,17.5,30.50,West,259,3.0,5.0,64,0.00,,,0.00,VWS V14.01,2013-04-21 10:22:00,
2013-04-21 06:24:00,28.1,17.5,30.51,SSW,193,2.0,5.0,64,0.00,,,0.00,VWS V14.01,2013-04-21 10:24:00,
2013-04-21 06:25:00,28.1,17.5,30.51,SSW,206,2.0,5.0,64,0.00,,,0.00,VWS V14.01,2013-04-21 10:25:00,
2013-04-21 06:26:00,28.1,17.5,30.51,SW,229,4.0,7.0,64,0.00,,,0.00,VWS V14.01,2013-04-21 10:26:00,
2013-04-21 06:27:00,28.1,17.5,30.51,WSW,240,5.0,7.0,64,0.00,,,0.00,VWS V14.01,2013-04-21 10:27:00,
2013-04-21 06:29:00,28.1,17.5,30.51,SW,225,2.0,7.0,64,0.00,,,0.00,VWS V14.01,2013-04-21 10:29:00,
2013-04-21 06:30:00,28.1,17.9,30.51,SW,230,3.0,7.0,65,0.00,,,0.00,VWS V14.01,2013-04-21 10:30:00,
2013-04-21 06:31:00,28.1,17.9,30.51,WSW,238,3.0,6.0,65,0.00,,,0.00,VWS V14.01,2013-04-21 10:31:00,
2013-04-21 06:32:00,28.1,17.9,30.51,SW,220,9.0,9.0,65,0.00,,,0.00,VWS V14.01,2013-04-21 10:32:00,
2013-04-21 06:34:00,28.1,17.5,30.51,NE,53,1.0,10.0,64,0.00,,,0.00,VWS V14.01,2013-04-21 10:34:00,
2013-04-21 06:35:00,28.1,17.5,30.51,NE,54,1.0,10.0,64,0.00,,,0.00,VWS V14.01,2013-04-21 10:35:00,
2013-04-21 06:36:00,28.1,17.5,30.52,South,169,2.0,4.0,64,0.00,,,0.00,VWS V14.01,2013-04-21 10:36:00,
2013-04-21 06:37:00,28.1,17.5,30.52,SW,221,6.0,6.0,64,0.00,,,0.00,VWS V14.01,2013-04-21 10:37:00,
2013-04-21 06:40:00,28.1,17.5,30.52,SW,227,0.0,0.0,64,0.00,,,0.00,VWS V14.01,2013-04-21 10:40:00,
2013-04-21 06:41:00,28.1,17.9,30.52,SW,228,0.0,1.0,65,0.00,,,0.00,VWS V14.01,2013-04-21 10:41:00,
2013-04-21 06:42:00,28.1,17.9,30.52,SW,228,0.0,1.0,65,0.00,,,0.00,VWS V14.01,2013-04-21 10:42:00,
2013-04-21 06:45:00,28.0,17.8,30.52,WSW,246,0.0,5.0,65,0.00,,,0.00,VWS V14.01,2013-04-21 10:45:00,
2013-04-21 06:46:00,28.0,17.4,30.52,WSW,246,0.0,2.0,64,0.00,,,0.00,VWS V14.01,2013-04-21 10:46:00,
2013-04-21 06:47:00,28.0,17.4,30.52,WSW,246,0.0,2.0,64,0.00,,,0.00,VWS V14.01,2013-04-21 10:47:00,
2013-04-21 06:48:00,28.0,17.4,30.52,WSW,246,0.0,2.0,64,0.00,,,0.00,VWS V14.01,2013-04-21 10:48:00,
2013-04-21 06:50:00,27.9,17.3,30.53,SW,227,2.0,3.0,64,0.00,,,0.00,VWS V14.01,2013-04-21 10:50:00,
2013-04-21 06:51:00,27.9,17.3,30.53,WSW,239,3.0,5.0,64,0.00,,,0.00,VWS V14.01,2013-04-21 10:51:00,
2013-04-21 06:52:00,27.9,17.3,30.53,WSW,240,1.0,5.0,64,0.00,,,0.00,VWS V14.01,2013-04-21 10:52:00,
2013-04-21 06:53:00,27.9,17.3,30.53,WSW,241,0.0,5.0,64,0.00,,,0.00,VWS V14.01,2013-04-21 10:53:00,
2013-04-21 06:55:00,27.9,17.7,30.53,WSW,238,1.0,1.0,65,0.00,,,0.00,VWS V14.01,2013-04-21 10:55:00,
2013-04-21 06:56:00,27.9,17.3,30.53,WSW,237,1.0,3.0,64,0.00,,,0.00,VWS V14.01,2013-04-21 10:56:00,
2013-04-21 06:57:00,27.9,17.7,30.53,WSW,237,0.0,3.0,65,0.00,,,0.00,VWS V14.01,2013-04-21 10:57:00,
2013-04-21 06:58:00,27.9,17.3,30.53,WSW,237,0.0,3.0,64,0.00,,,0.00,VWS V14.01,2013-04-21 10:58:00,
2013-04-21 07:00:00,27.9,17.7,30.54,WSW,237,0.0,1.0,65,0.00,,,0.00,VWS V14.01,2013-04-21 11:00:00,
2013-04-21 07:01:00,27.8,17.6,30.54,WSW,237,1.0,3.0,65,0.00,,,0.00,VWS V14.01,2013-04-21 11:01:00,
2013-04-21 07:02:00,27.8,17.6,30.54,WSW,237,1.0,3.0,65,0.00,,,0.00,VWS V14.01,2013-04-21 11:02:00,
2013-04-21 07:03:00,27.8,17.6,30.54,WSW,238,0.0,3.0,65,0.00,,,0.00,VWS V14.01,2013-04-21 11:03:00,
2013-04-21 07:05:00,27.8,17.6,30.54,WSW,244,2.0,4.0,65,0.00,,,0.00,VWS V14.01,2013-04-21 11:05:00,
2013-04-21 07:06:00,27.9,17.3,30.54,West,269,1.0,4.0,64,0.00,,,0.00,VWS V14.01,2013-04-21 11:06:00,
2013-04-21 07:07:00,27.9,17.3,30.54,West,269,3.0,4.0,64,0.00,,,0.00,VWS V14.01,2013-04-21 11:07:00,
2013-04-21 07:08:00,27.9,17.3,30.54,West,269,0.0,4.0,64,0.00,,,0.00,VWS V14.01,2013-04-21 11:08:00,
2013-04-21 07:09:00,27.9,17.3,30.54,West,269,0.0,4.0,64,0.00,,,0.00,VWS V14.01,2013-04-21 11:09:00,
2013-04-21 07:10:00,27.9,17.3,30.54,SW,223,2.0,4.0,64,0.00,,,0.00,VWS V14.01,2013-04-21 11:10:00,
2013-04-21 07:12:00,27.9,17.3,30.55,SW,226,5.0,5.0,64,0.00,,,0.00,VWS V14.01,2013-04-21 11:12:00,
2013-04-21 07:13:00,27.9,17.3,30.55,SW,227,0.0,5.0,64,0.00,,,0.00,VWS V14.01,2013-04-21 11:13:00,
2013-04-21 07:14:00,27.9,17.3,30.55,SSW,211,3.0,5.0,64,0.00,,,0.00,VWS V14.01,2013-04-21 11:14:00,
2013-04-21 07:15:00,27.9,17.3,30.55,SW,215,1.0,2.0,64,0.00,,,0.00,VWS V14.01,2013-04-21 11:15:00,
2013-04-21 07:17:00,27.9,17.7,30.55,West,259,4.0,6.0,65,0.00,,,0.00,VWS V14.01,2013-04-21 11:17:00,
2013-04-21 07:18:00,27.9,17.3,30.55,WSW,252,2.0,6.0,64,0.00,,,0.00,VWS V14.01,2013-04-21 11:18:00,
2013-04-21 07:20:00,27.9,17.3,30.55,SSW,213,0.0,0.0,64,0.00,,,0.00,VWS V14.01,2013-04-21 11:20:00,
2013-04-21 07:21:00,27.9,17.3,30.55,SSW,213,0.0,1.0,64,0.00,,,0.00,VWS V14.01,2013-04-21 11:21:00,
2013-04-21 07:22:00,28.0,17.4,30.55,West,259,0.0,4.0,64,0.00,,,0.00,VWS V14.01,2013-04-21 11:22:00,
2013-04-21 07:23:00,28.0,17.0,30.55,West,259,0.0,4.0,63,0.00,,,0.00,VWS V14.01,2013-04-21 11:23:00,
2013-04-21 07:24:00,28.0,17.0,30.55,WSW,257,0.0,4.0,63,0.00,,,0.00,VWS V14.01,2013-04-21 11:24:00,
2013-04-21 07:25:00,28.0,17.0,30.56,WSW,258,0.0,0.0,63,0.00,,,0.00,VWS V14.01,2013-04-21 11:25:00,
2013-04-21 07:26:00,28.0,17.0,30.55,West,264,1.0,1.0,63,0.00,,,0.00,VWS V14.01,2013-04-21 11:26:00,
2013-04-21 07:27:00,28.1,17.5,30.56,SW,215,0.0,3.0,64,0.00,,,0.00,VWS V14.01,2013-04-21 11:27:00,
2013-04-21 07:28:00,28.1,17.9,30.56,SW,215,0.0,3.0,65,0.00,,,0.00,VWS V14.01,2013-04-21 11:28:00,
2013-04-21 07:29:00,28.1,17.9,30.56,SSW,211,1.0,4.0,65,0.00,,,0.00,VWS V14.01,2013-04-21 11:29:00,
2013-04-21 07:30:00,28.1,17.5,30.56,SW,233,3.0,4.0,64,0.00,,,0.00,VWS V14.01,2013-04-21 11:30:00,
2013-04-21 07:31:00,28.1,17.5,30.56,SW,234,1.0,4.0,64,0.00,,,0.00,VWS V14.01,2013-04-21 11:31:00,
2013-04-21 07:32:00,28.1,17.5,30.56,West,260,0.0,4.0,64,0.00,,,0.00,VWS V14.01,2013-04-21 11:32:00,
2013-04-21 07:33:00,28.2,17.6,30.56,West,263,4.0,8.0,64,0.00,,,0.00,VWS V14.01,2013-04-21 11:33:00,
2013-04-21 07:34:00,28.2,17.6,30.56,SSW,205,5.0,8.0,64,0.00,,,0.00,VWS V14.01,2013-04-21 11:34:00,
2013-04-21 07:35:00,28.2,17.6,30.56,West,259,4.0,6.0,64,0.00,,,0.00,VWS V14.01,2013-04-21 11:35:00,
2013-04-21 07:36:00,28.3,17.7,30.56,WNW,296,4.0,6.0,64,0.00,,,0.00,VWS V14.01,2013-04-21 11:36:00,
2013-04-21 07:37:00,28.3,17.3,30.56,SSW,194,1.0,6.0,63,0.00,,,0.00,VWS V14.01,2013-04-21 11:37:00,
2013-04-21 07:38:00,28.4,17.4,30.56,SSW,198,0.0,6.0,63,0.00,,,0.00,VWS V14.01,2013-04-21 11:38:00,
2013-04-21 07:39:00,28.4,17.4,30.56,SSW,198,0.0,6.0,63,0.00,,,0.00,VWS V14.01,2013-04-21 11:39:00,
2013-04-21 07:40:00,28.5,17.5,30.56,SSW,200,2.0,2.0,63,0.00,,,0.00,VWS V14.01,2013-04-21 11:40:00,
2013-04-21 07:41:00,28.6,17.6,30.56,West,272,2.0,8.0,63,0.00,,,0.00,VWS V14.01,2013-04-21 11:41:00,
2013-04-21 07:42:00,28.7,17.3,30.56,West,268,0.0,8.0,62,0.00,,,0.00,VWS V14.01,2013-04-21 11:42:00,
2013-04-21 07:43:00,28.8,17.4,30.57,SE,145,5.0,11.0,62,0.00,,,0.00,VWS V14.01,2013-04-21 11:43:00,
2013-04-21 07:44:00,28.8,17.4,30.57,SSW,192,0.0,11.0,62,0.00,,,0.00,VWS V14.01,2013-04-21 11:44:00,
2013-04-21 07:45:00,28.9,17.2,30.57,SW,231,5.0,5.0,61,0.00,,,0.00,VWS V14.01,2013-04-21 11:45:00,
2013-04-21 07:47:00,29.0,17.2,30.57,SE,146,1.0,6.0,61,0.00,,,0.00,VWS V14.01,2013-04-21 11:47:00,
2013-04-21 07:48:00,29.2,17.4,30.57,SSW,211,0.0,11.0,61,0.00,,,0.00,VWS V14.01,2013-04-21 11:48:00,
2013-04-21 07:49:00,29.3,17.5,30.57,SW,233,5.0,11.0,61,0.00,,,0.00,VWS V14.01,2013-04-21 11:49:00,
2013-04-21 07:50:00,29.3,17.5,30.57,SW,233,5.0,11.0,61,0.00,,,0.00,VWS V14.01,2013-04-21 11:50:00,
2013-04-21 07:51:00,29.5,17.7,30.57,SW,229,0.0,7.0,61,0.00,,,0.00,VWS V14.01,2013-04-21 11:51:00,
2013-04-21 07:52:00,29.8,18.4,30.57,SW,232,1.0,7.0,62,0.00,,,0.00,VWS V14.01,2013-04-21 11:52:00,
2013-04-21 07:53:00,29.8,17.6,30.57,NE,35,2.0,7.0,60,0.00,,,0.00,VWS V14.01,2013-04-21 11:53:00,
2013-04-21 07:54:00,30.1,17.5,30.57,West,273,2.0,7.0,59,0.00,,,0.00,VWS V14.01,2013-04-21 11:54:00,
2013-04-21 07:55:00,30.2,17.2,30.57,West,275,3.0,4.0,58,0.00,,,0.00,VWS V14.01,2013-04-21 11:55:00,
2013-04-21 07:56:00,30.4,17.8,30.57,West,263,2.0,5.0,59,0.00,,,0.00,VWS V14.01,2013-04-21 11:56:00,
2013-04-21 07:57:00,30.6,18.0,30.57,SW,214,2.0,5.0,59,0.00,,,0.00,VWS V14.01,2013-04-21 11:57:00,
2013-04-21 07:58:00,30.7,18.5,30.57,SSW,212,2.0,5.0,60,0.00,,,0.00,VWS V14.01,2013-04-21 11:58:00,
2013-04-21 07:59:00,30.8,17.8,30.57,WSW,248,2.0,5.0,58,0.00,,,0.00,VWS V14.01,2013-04-21 11:59:00,
2013-04-21 08:00:00,31.0,18.0,30.57,WSW,248,0.0,0.0,58,0.00,,,0.00,VWS V14.01,2013-04-21 12:00:00,
2013-04-21 08:01:00,31.2,18.2,30.57,SW,233,6.0,6.0,58,0.00,,,0.00,VWS V14.01,2013-04-21 12:01:00,
2013-04-21 08:02:00,31.4,17.9,30.57,SW,234,2.0,6.0,57,0.00,,,0.00,VWS V14.01,2013-04-21 12:02:00,
2013-04-21 08:03:00,31.4,18.4,30.57,SW,233,2.0,6.0,58,0.00,,,0.00,VWS V14.01,2013-04-21 12:03:00,
2013-04-21 08:04:00,31.5,18.0,30.58,WSW,246,3.0,9.0,57,0.00,,,0.00,VWS V14.01,2013-04-21 12:04:00,
2013-04-21 08:05:00,31.5,17.6,30.58,SW,227,7.0,7.0,56,0.00,,,0.00,VWS V14.01,2013-04-21 12:05:00,
2013-04-21 08:06:00,31.6,17.7,30.58,SW,236,0.0,8.0,56,0.00,,,0.00,VWS V14.01,2013-04-21 12:06:00,
2013-04-21 08:07:00,31.6,17.3,30.58,West,260,10.0,11.0,55,0.00,,,0.00,VWS V14.01,2013-04-21 12:07:00,
2013-04-21 08:08:00,31.6,17.3,30.58,SSW,211,2.0,11.0,55,0.00,,,0.00,VWS V14.01,2013-04-21 12:08:00,
2013-04-21 08:09:00,31.6,17.3,30.58,SSW,211,0.0,11.0,55,0.00,,,0.00,VWS V14.01,2013-04-21 12:09:00,
2013-04-21 08:10:00,31.7,18.2,30.58,SE,142,2.0,4.0,57,0.00,,,0.00,VWS V14.01,2013-04-21 12:10:00,
2013-04-21 08:11:00,31.9,18.8,30.58,SSW,195,4.0,9.0,58,0.00,,,0.00,VWS V14.01,2013-04-21 12:11:00,
2013-04-21 08:12:00,32.0,18.1,30.58,SSW,193,2.0,9.0,56,0.00,,,0.00,VWS V14.01,2013-04-21 12:12:00,
2013-04-21 08:13:00,32.1,18.2,30.58,South,181,2.0,9.0,56,0.00,,,0.00,VWS V14.01,2013-04-21 12:13:00,
2013-04-21 08:14:00,32.3,17.5,30.58,SW,229,3.0,9.0,54,0.00,,,0.00,VWS V14.01,2013-04-21 12:14:00,
2013-04-21 08:15:00,32.4,18.0,30.58,SSW,208,2.0,6.0,55,0.00,,,0.00,VWS V14.01,2013-04-21 12:15:00,
2013-04-21 08:16:00,32.4,18.0,30.58,SW,227,0.0,6.0,55,0.00,,,0.00,VWS V14.01,2013-04-21 12:16:00,
2013-04-21 08:18:00,32.5,18.1,30.58,NE,34,2.0,6.0,55,0.00,,,0.00,VWS V14.01,2013-04-21 12:18:00,
2013-04-21 08:19:00,32.4,18.0,30.59,South,174,0.0,6.0,55,0.00,,,0.00,VWS V14.01,2013-04-21 12:19:00,
2013-04-21 08:20:00,32.4,18.0,30.58,SE,126,0.0,1.0,55,0.00,,,0.00,VWS V14.01,2013-04-21 12:20:00,
2013-04-21 08:21:00,32.5,18.1,30.59,SE,133,3.0,5.0,55,0.00,,,0.00,VWS V14.01,2013-04-21 12:21:00,
2013-04-21 08:23:00,32.5,18.1,30.59,SE,144,0.0,5.0,55,0.00,,,0.00,VWS V14.01,2013-04-21 12:23:00,
2013-04-21 08:24:00,32.7,18.3,30.59,SSW,213,5.0,5.0,55,0.00,,,0.00,VWS V14.01,2013-04-21 12:24:00,
2013-04-21 08:25:00,32.8,18.4,30.59,South,176,7.0,7.0,55,0.00,,,0.00,VWS V14.01,2013-04-21 12:25:00,
2013-04-21 08:26:00,33.0,18.2,30.59,SE,130,4.0,9.0,54,0.00,,,0.00,VWS V14.01,2013-04-21 12:26:00,
2013-04-21 08:28:00,32.9,17.7,30.59,South,177,1.0,9.0,53,0.00,,,0.00,VWS V14.01,2013-04-21 12:28:00,
2013-04-21 08:29:00,32.9,17.7,30.59,ESE,116,3.0,9.0,53,0.00,,,0.00,VWS V14.01,2013-04-21 12:29:00,
2013-04-21 08:30:00,32.9,18.1,30.59,SSE,153,5.0,7.0,54,0.00,,,0.00,VWS V14.01,2013-04-21 12:30:00,
2013-04-21 08:31:00,32.8,17.1,30.59,SSW,210,2.0,7.0,52,0.00,,,0.00,VWS V14.01,2013-04-21 12:31:00,
2013-04-21 08:33:00,32.8,17.6,30.59,SW,215,2.0,10.0,53,0.00,,,0.00,VWS V14.01,2013-04-21 12:33:00,
2013-04-21 08:35:00,32.9,17.7,30.59,WSW,252,1.0,3.0,53,0.00,,,0.00,VWS V14.01,2013-04-21 12:35:00,
2013-04-21 08:36:00,33.0,17.8,30.59,WSW,249,0.0,3.0,53,0.00,,,0.00,VWS V14.01,2013-04-21 12:36:00,
2013-04-21 08:38:00,33.3,18.9,30.59,East,91,4.0,4.0,55,0.00,,,0.00,VWS V14.01,2013-04-21 12:38:00,
2013-04-21 08:40:00,33.2,17.9,30.59,East,100,1.0,3.0,53,0.00,,,0.00,VWS V14.01,2013-04-21 12:40:00,
2013-04-21 08:41:00,33.2,17.9,30.59,SW,215,2.0,3.0,53,0.00,,,0.00,VWS V14.01,2013-04-21 12:41:00,
2013-04-21 08:43:00,33.0,17.8,30.59,NW,325,1.0,9.0,53,0.00,,,0.00,VWS V14.01,2013-04-21 12:43:00,
2013-04-21 08:44:00,33.0,17.8,30.59,NW,325,0.0,9.0,53,0.00,,,0.00,VWS V14.01,2013-04-21 12:44:00,
2013-04-21 08:45:00,33.0,17.8,30.59,West,273,4.0,9.0,53,0.00,,,0.00,VWS V14.01,2013-04-21 12:45:00,
2013-04-21 08:46:00,32.9,17.7,30.59,West,259,2.0,9.0,53,0.00,,,0.00,VWS V14.01,2013-04-21 12:46:00,
2013-04-21 08:47:00,32.8,17.1,30.60,West,261,1.0,9.0,52,0.00,,,0.00,VWS V14.01,2013-04-21 12:47:00,
2013-04-21 08:48:00,32.4,16.8,30.60,NE,34,3.0,9.0,52,0.00,,,0.00,VWS V14.01,2013-04-21 12:48:00,
2013-04-21 08:49:00,32.3,16.7,30.60,WNW,284,2.0,9.0,52,0.00,,,0.00,VWS V14.01,2013-04-21 12:49:00,
2013-04-21 08:50:00,32.1,17.3,30.60,South,182,0.0,1.0,54,0.00,,,0.00,VWS V14.01,2013-04-21 12:50:00,
2013-04-21 08:51:00,32.1,17.3,30.60,South,182,0.0,1.0,54,0.00,,,0.00,VWS V14.01,2013-04-21 12:51:00,
2013-04-21 08:52:00,32.1,18.2,30.60,South,182,0.0,2.0,56,0.00,,,0.00,VWS V14.01,2013-04-21 12:52:00,
2013-04-21 08:53:00,32.1,18.2,30.60,SSW,200,3.0,5.0,56,0.00,,,0.00,VWS V14.01,2013-04-21 12:53:00,
2013-04-21 08:54:00,32.1,18.2,30.60,WSW,254,2.0,5.0,56,0.00,,,0.00,VWS V14.01,2013-04-21 12:54:00,
2013-04-21 08:55:00,32.1,17.3,30.60,SW,223,1.0,7.0,54,0.00,,,0.00,VWS V14.01,2013-04-21 12:55:00,
2013-04-21 08:56:00,32.1,17.8,30.60,ESE,114,2.0,4.0,55,0.00,,,0.00,VWS V14.01,2013-04-21 12:56:00,
2013-04-21 08:58:00,32.2,18.7,30.60,SSW,206,0.0,4.0,57,0.00,,,0.00,VWS V14.01,2013-04-21 12:58:00,
2013-04-21 08:59:00,32.4,19.3,30.60,SSW,206,0.0,4.0,58,0.00,,,0.00,VWS V14.01,2013-04-21 12:59:00,
2013-04-21 09:00:00,32.5,18.6,30.61,SSW,209,1.0,4.0,56,0.00,,,0.00,VWS V14.01,2013-04-21 13:00:00,
2013-04-21 09:01:00,32.9,19.4,30.61,SW,219,10.0,13.0,57,0.00,,,0.00,VWS V14.01,2013-04-21 13:01:00,
2013-04-21 09:03:00,33.2,18.8,30.61,SE,131,2.0,14.0,55,0.00,,,0.00,VWS V14.01,2013-04-21 13:03:00,
2013-04-21 09:04:00,33.4,19.0,30.61,SE,131,1.0,14.0,55,0.00,,,0.00,VWS V14.01,2013-04-21 13:04:00,
2013-04-21 09:05:00,33.5,19.1,30.61,SSW,196,2.0,14.0,55,0.00,,,0.00,VWS V14.01,2013-04-21 13:05:00,
2013-04-21 09:06:00,33.7,18.8,30.61,West,261,1.0,4.0,54,0.00,,,0.00,VWS V14.01,2013-04-21 13:06:00,
2013-04-21 09:08:00,34.1,20.1,30.61,SSE,152,3.0,4.0,56,0.00,,,0.00,VWS V14.01,2013-04-21 13:08:00,
2013-04-21 09:09:00,34.1,20.1,30.61,East,98,4.0,4.0,56,0.00,,,0.00,VWS V14.01,2013-04-21 13:09:00,
2013-04-21 09:10:00,34.3,20.2,30.61,ESE,105,0.0,4.0,56,0.00,,,0.00,VWS V14.01,2013-04-21 13:10:00,
2013-04-21 09:11:00,34.4,19.0,30.61,SW,232,3.0,5.0,53,0.00,,,0.00,VWS V14.01,2013-04-21 13:11:00,
2013-04-21 09:14:00,34.4,18.6,30.61,SSE,168,2.0,5.0,52,0.00,,,0.00,VWS V14.01,2013-04-21 13:14:00,
2013-04-21 09:15:00,34.4,19.0,30.61,SE,137,0.0,1.0,53,0.00,,,0.00,VWS V14.01,2013-04-21 13:15:00,
2013-04-21 09:17:00,34.4,19.5,30.61,SE,130,0.0,4.0,54,0.00,,,0.00,VWS V14.01,2013-04-21 13:17:00,
2013-04-21 09:19:00,34.4,19.0,30.61,ESE,105,4.0,6.0,53,0.00,,,0.00,VWS V14.01,2013-04-21 13:19:00,
2013-04-21 09:20:00,34.4,19.5,30.61,SE,142,1.0,1.0,54,0.00,,,0.00,VWS V14.01,2013-04-21 13:20:00,
2013-04-21 09:22:00,34.4,19.9,30.61,West,272,6.0,11.0,55,0.00,,,0.00,VWS V14.01,2013-04-21 13:22:00,
2013-04-21 09:24:00,34.4,18.6,30.61,West,272,3.0,12.0,52,0.00,,,0.00,VWS V14.01,2013-04-21 13:24:00,
2013-04-21 09:25:00,34.4,19.5,30.61,SSW,213,2.0,2.0,54,0.00,,,0.00,VWS V14.01,2013-04-21 13:25:00,
2013-04-21 09:27:00,34.5,20.0,30.62,SW,223,5.0,11.0,55,0.00,,,0.00,VWS V14.01,2013-04-21 13:27:00,
2013-04-21 09:29:00,34.7,20.2,30.61,SSE,165,5.0,11.0,55,0.00,,,0.00,VWS V14.01,2013-04-21 13:29:00,
2013-04-21 09:30:00,34.8,20.3,30.62,East,91,5.0,7.0,55,0.00,,,0.00,VWS V14.01,2013-04-21 13:30:00,
2013-04-21 09:32:00,34.9,20.8,30.62,West,264,0.0,7.0,56,0.00,,,0.00,VWS V14.01,2013-04-21 13:32:00,
2013-04-21 09:34:00,34.8,19.0,30.62,SSW,209,4.0,7.0,52,0.00,,,0.00,VWS V14.01,2013-04-21 13:34:00,
2013-04-21 09:35:00,34.8,19.0,30.62,WSW,239,1.0,3.0,52,0.00,,,0.00,VWS V14.01,2013-04-21 13:35:00,
2013-04-21 09:37:00,35.0,19.6,30.62,SSW,205,4.0,6.0,53,0.00,,,0.00,VWS V14.01,2013-04-21 13:37:00,
2013-04-21 09:38:00,35.0,19.6,30.62,WSW,245,2.0,6.0,53,0.00,,,0.00,VWS V14.01,2013-04-21 13:38:00,
2013-04-21 09:39:00,35.1,19.7,30.62,SE,130,2.0,7.0,53,0.00,,,0.00,VWS V14.01,2013-04-21 13:39:00,
2013-04-21 09:40:00,35.0,19.2,30.62,SW,227,3.0,9.0,52,0.00,,,0.00,VWS V14.01,2013-04-21 13:40:00,
2013-04-21 09:42:00,34.9,20.4,30.62,SSE,148,2.0,9.0,55,0.00,,,0.00,VWS V14.01,2013-04-21 13:42:00,
2013-04-21 09:43:00,34.9,20.0,30.62,ESE,117,1.0,9.0,54,0.00,,,0.00,VWS V14.01,2013-04-21 13:43:00,
2013-04-21 09:44:00,34.7,19.8,30.62,East,80,5.0,9.0,54,0.00,,,0.00,VWS V14.01,2013-04-21 13:44:00,
2013-04-21 09:45:00,34.6,19.2,30.62,SW,232,0.0,8.0,53,0.00,,,0.00,VWS V14.01,2013-04-21 13:45:00,
2013-04-21 09:47:00,34.4,19.0,30.62,SW,222,2.0,9.0,53,0.00,,,0.00,VWS V14.01,2013-04-21 13:47:00,
2013-04-21 09:48:00,34.4,18.6,30.63,SSE,164,5.0,9.0,52,0.00,,,0.00,VWS V14.01,2013-04-21 13:48:00,
2013-04-21 09:49:00,34.4,18.2,30.63,SW,221,1.0,9.0,51,0.00,,,0.00,VWS V14.01,2013-04-21 13:49:00,
2013-04-21 09:50:00,34.4,18.6,30.62,SSW,192,6.0,9.0,52,0.00,,,0.00,VWS V14.01,2013-04-21 13:50:00,
2013-04-21 09:53:00,34.4,18.6,30.63,South,180,2.0,10.0,52,0.00,,,0.00,VWS V14.01,2013-04-21 13:53:00,
2013-04-21 09:54:00,34.5,19.6,30.63,ENE,68,1.0,10.0,54,0.00,,,0.00,VWS V14.01,2013-04-21 13:54:00,
2013-04-21 09:55:00,34.5,19.6,30.63,South,187,3.0,3.0,54,0.00,,,0.00,VWS V14.01,2013-04-21 13:55:00,
2013-04-21 09:58:00,34.9,18.6,30.63,WNW,300,0.0,10.0,51,0.00,,,0.00,VWS V14.01,2013-04-21 13:58:00,
2013-04-21 09:59:00,34.9,19.1,30.63,ESE,113,3.0,10.0,52,0.00,,,0.00,VWS V14.01,2013-04-21 13:59:00,
2013-04-21 10:00:00,35.0,20.0,30.63,East,79,3.0,5.0,54,0.00,,,0.00,VWS V14.01,2013-04-21 14:00:00,
2013-04-21 10:03:00,35.1,19.3,30.63,SE,140,1.0,11.0,52,0.00,,,0.00,VWS V14.01,2013-04-21 14:03:00,
2013-04-21 10:05:00,35.2,19.8,30.63,SSW,205,2.0,11.0,53,0.00,,,0.00,VWS V14.01,2013-04-21 14:05:00,
2013-04-21 10:08:00,35.5,20.5,30.63,SW,225,5.0,7.0,54,0.00,,,0.00,VWS V14.01,2013-04-21 14:08:00,
2013-04-21 10:09:00,35.7,20.7,30.63,SW,218,1.0,7.0,54,0.00,,,0.00,VWS V14.01,2013-04-21 14:09:00,
2013-04-21 10:10:00,35.8,20.8,30.63,SW,236,8.0,8.0,54,0.00,,,0.00,VWS V14.01,2013-04-21 14:10:00,
2013-04-21 10:13:00,36.0,19.6,30.63,WSW,258,4.0,11.0,51,0.00,,,0.00,VWS V14.01,2013-04-21 14:13:00,
2013-04-21 10:15:00,36.0,19.2,30.63,ESE,109,2.0,11.0,50,0.00,,,0.00,VWS V14.01,2013-04-21 14:15:00,
2013-04-21 10:16:00,35.9,19.5,30.63,SSW,194,1.0,3.0,51,0.00,,,0.00,VWS V14.01,2013-04-21 14:16:00,
2013-04-21 10:18:00,36.2,18.9,30.63,WSW,250,3.0,9.0,49,0.00,,,0.00,VWS V14.01,2013-04-21 14:18:00,
2013-04-21 10:19:00,36.2,18.9,30.63,WSW,249,4.0,9.0,49,0.00,,,0.00,VWS V14.01,2013-04-21 14:19:00,
2013-04-21 10:20:00,36.1,18.8,30.63,NW,310,4.0,7.0,49,0.00,,,0.00,VWS V14.01,2013-04-21 14:20:00,
2013-04-21 10:21:00,36.0,19.2,30.63,WNW,293,1.0,8.0,50,0.00,,,0.00,VWS V14.01,2013-04-21 14:21:00,
2013-04-21 10:23:00,36.0,19.2,30.63,West,261,1.0,12.0,50,0.00,,,0.00,VWS V14.01,2013-04-21 14:23:00,
2013-04-21 10:24:00,36.0,19.2,30.63,West,265,0.0,12.0,50,0.00,,,0.00,VWS V14.01,2013-04-21 14:24:00,
2013-04-21 10:25:00,36.1,20.2,30.63,SW,229,2.0,7.0,52,0.00,,,0.00,VWS V14.01,2013-04-21 14:25:00,
2013-04-21 10:26:00,36.2,19.8,30.63,SW,227,11.0,11.0,51,0.00,,,0.00,VWS V14.01,2013-04-21 14:26:00,
2013-04-21 10:29:00,36.4,21.4,30.63,SW,224,0.0,13.0,54,0.00,,,0.00,VWS V14.01,2013-04-21 14:29:00,
2013-04-21 10:30:00,36.6,20.6,30.63,WSW,245,9.0,9.0,52,0.00,,,0.00,VWS V14.01,2013-04-21 14:30:00,
2013-04-21 10:31:00,36.6,20.6,30.63,NW,312,5.0,9.0,52,0.00,,,0.00,VWS V14.01,2013-04-21 14:31:00,
2013-04-21 10:34:00,36.6,18.3,30.63,East,95,4.0,9.0,47,0.00,,,0.00,VWS V14.01,2013-04-21 14:34:00,
2013-04-21 10:35:00,36.5,18.2,30.63,ESE,105,2.0,9.0,47,0.00,,,0.00,VWS V14.01,2013-04-21 14:35:00,
2013-04-21 10:36:00,36.4,18.6,30.63,WSW,247,4.0,8.0,48,0.00,,,0.00,VWS V14.01,2013-04-21 14:36:00,
2013-04-21 10:39:00,36.5,19.2,30.63,West,279,1.0,9.0,49,0.00,,,0.00,VWS V14.01,2013-04-21 14:39:00,
2013-04-21 10:40:00,36.5,19.2,30.63,SW,230,1.0,9.0,49,0.00,,,0.00,VWS V14.01,2013-04-21 14:40:00,
2013-04-21 10:41:00,36.7,20.3,30.63,SW,220,3.0,5.0,51,0.00,,,0.00,VWS V14.01,2013-04-21 14:41:00,
2013-04-21 10:44:00,37.0,19.6,30.63,South,175,1.0,14.0,49,0.00,,,0.00,VWS V14.01,2013-04-21 14:44:00,
2013-04-21 10:45:00,37.0,19.6,30.63,ENE,67,3.0,14.0,49,0.00,,,0.00,VWS V14.01,2013-04-21 14:45:00,
2013-04-21 10:46:00,37.0,19.6,30.63,ESE,122,1.0,4.0,49,0.00,,,0.00,VWS V14.01,2013-04-21 14:46:00,
2013-04-21 10:49:00,37.3,20.9,30.63,South,191,1.0,4.0,51,0.00,,,0.00,VWS V14.01,2013-04-21 14:49:00,
2013-04-21 10:50:00,37.3,20.9,30.63,SSW,192,0.0,4.0,51,0.00,,,0.00,VWS V14.01,2013-04-21 14:50:00,
2013-04-21 10:51:00,37.6,21.1,30.64,North,11,1.0,7.0,51,0.00,,,0.00,VWS V14.01,2013-04-21 14:51:00,
2013-04-21 10:54:00,37.9,20.5,30.64,WNW,282,0.0,11.0,49,0.00,,,0.00,VWS V14.01,2013-04-21 14:54:00,
2013-04-21 10:55:00,37.9,20.5,30.64,WSW,243,9.0,10.0,49,0.00,,,0.00,VWS V14.01,2013-04-21 14:55:00,
2013-04-21 10:56:00,37.9,18.5,30.63,WSW,241,9.0,10.0,45,0.00,,,0.00,VWS V14.01,2013-04-21 14:56:00,
2013-04-21 10:57:00,37.8,18.4,30.63,West,272,5.0,12.0,45,0.00,,,0.00,VWS V14.01,2013-04-21 14:57:00,
2013-04-21 10:59:00,37.4,20.0,30.63,West,271,1.0,13.0,49,0.00,,,0.00,VWS V14.01,2013-04-21 14:59:00,
2013-04-21 11:00:00,37.4,20.0,30.63,SSE,163,4.0,5.0,49,0.00,,,0.00,VWS V14.01,2013-04-21 15:00:00,
2013-04-21 11:01:00,37.4,19.0,30.64,NW,317,4.0,10.0,47,0.00,,,0.00,VWS V14.01,2013-04-21 15:01:00,
2013-04-21 11:02:00,37.4,19.0,30.64,SW,234,3.0,10.0,47,0.00,,,0.00,VWS V14.01,2013-04-21 15:02:00,
2013-04-21 11:04:00,37.3,18.9,30.64,East,92,0.0,10.0,47,0.00,,,0.00,VWS V14.01,2013-04-21 15:04:00,
2013-04-21 11:05:00,37.3,18.9,30.64,SW,227,6.0,6.0,47,0.00,,,0.00,VWS V14.01,2013-04-21 15:05:00,
2013-04-21 11:06:00,37.3,18.4,30.63,WNW,293,9.0,11.0,46,0.00,,,0.00,VWS V14.01,2013-04-21 15:06:00,
2013-04-21 11:07:00,37.3,18.4,30.63,SW,229,5.0,11.0,46,0.00,,,0.00,VWS V14.01,2013-04-21 15:07:00,
2013-04-21 11:10:00,37.6,18.2,30.64,WSW,242,4.0,4.0,45,0.00,,,0.00,VWS V14.01,2013-04-21 15:10:00,
2013-04-21 11:12:00,37.5,19.1,30.64,NW,326,4.0,12.0,47,0.00,,,0.00,VWS V14.01,2013-04-21 15:12:00,
2013-04-21 11:15:00,37.4,20.0,30.64,SW,231,6.0,9.0,49,0.00,,,0.00,VWS V14.01,2013-04-21 15:15:00,
2013-04-21 11:17:00,37.4,19.0,30.63,WSW,252,1.0,9.0,47,0.00,,,0.00,VWS V14.01,2013-04-21 15:17:00,
2013-04-21 11:20:00,37.5,19.6,30.64,WSW,248,3.0,9.0,48,0.00,,,0.00,VWS V14.01,2013-04-21 15:20:00,
2013-04-21 11:25:00,37.8,20.4,30.63,SE,135,1.0,6.0,49,0.00,,,0.00,VWS V14.01,2013-04-21 15:25:00,
2013-04-21 11:30:00,38.4,20.4,30.63,South,180,3.0,12.0,48,0.00,,,0.00,VWS V14.01,2013-04-21 15:30:00,
2013-04-21 11:35:00,39.3,19.8,30.64,SW,225,3.0,10.0,45,0.00,,,0.00,VWS V14.01,2013-04-21 15:35:00,
2013-04-21 11:40:00,39.1,20.1,30.64,SW,225,4.0,13.0,46,0.00,,,0.00,VWS V14.01,2013-04-21 15:40:00,
2013-04-21 11:45:00,38.8,21.3,30.64,WSW,248,3.0,9.0,49,0.00,,,0.00,VWS V14.01,2013-04-21 15:45:00,
2013-04-21 11:50:00,39.1,19.0,30.64,West,270,6.0,16.0,44,0.00,,,0.00,VWS V14.01,2013-04-21 15:50:00,
2013-04-21 11:55:00,38.8,19.3,30.64,WSW,248,6.0,14.0,45,0.00,,,0.00,VWS V14.01,2013-04-21 15:55:00,
2013-04-21 12:00:00,38.9,20.4,30.64,East,90,4.0,10.0,47,0.00,,,0.00,VWS V14.01,2013-04-21 16:00:00,
2013-04-21 12:05:00,39.4,20.4,30.65,SW,225,3.0,10.0,46,0.00,,,0.00,VWS V14.01,2013-04-21 16:05:00,
2013-04-21 12:10:00,39.5,21.0,30.64,SE,135,3.0,10.0,47,0.00,,,0.00,VWS V14.01,2013-04-21 16:10:00,
2013-04-21 12:15:00,39.4,21.8,30.64,WSW,248,4.0,14.0,49,0.00,,,0.00,VWS V14.01,2013-04-21 16:15:00,
2013-04-21 12:20:00,39.7,21.1,30.64,SW,225,4.0,10.0,47,0.00,,,0.00,VWS V14.01,2013-04-21 16:20:00,
2013-04-21 12:25:00,39.8,19.7,30.64,SE,135,3.0,13.0,44,0.00,,,0.00,VWS V14.01,2013-04-21 16:25:00,
2013-04-21 12:30:00,39.7,22.6,30.64,West,270,3.0,13.0,50,0.00,,,0.00,VWS V14.01,2013-04-21 16:30:00,
2013-04-21 12:35:00,40.3,20.1,30.64,SW,225,5.0,14.0,44,0.00,,,0.00,VWS V14.01,2013-04-21 16:35:00,
2013-04-21 12:40:00,40.6,19.3,30.64,SW,225,3.0,12.0,42,0.00,,,0.00,VWS V14.01,2013-04-21 16:40:00,
2013-04-21 12:45:00,40.8,20.0,30.64,WSW,248,3.0,12.0,43,0.00,,,0.00,VWS V14.01,2013-04-21 16:45:00,
2013-04-21 12:50:00,40.7,22.1,30.64,SW,225,3.0,12.0,47,0.00,,,0.00,VWS V14.01,2013-04-21 16:50:00,
2013-04-21 12:55:00,41.1,21.4,30.64,WSW,248,4.0,9.0,45,0.00,,,0.00,VWS V14.01,2013-04-21 16:55:00,
2013-04-21 13:00:00,41.7,20.3,30.65,SW,225,3.0,12.0,42,0.00,,,0.00,VWS V14.01,2013-04-21 17:00:00,
2013-04-21 13:05:00,41.8,22.5,30.64,WSW,248,2.0,13.0,46,0.00,,,0.00,VWS V14.01,2013-04-21 17:05:00,
2013-04-21 13:10:00,41.7,20.9,30.65,WSW,248,5.0,13.0,43,0.00,,,0.00,VWS V14.01,2013-04-21 17:10:00,
2013-04-21 13:15:00,41.3,21.0,30.65,SW,225,4.0,11.0,44,0.00,,,0.00,VWS V14.01,2013-04-21 17:15:00,
2013-04-21 13:20:00,41.3,19.4,30.64,ESE,112,4.0,10.0,41,0.00,,,0.00,VWS V14.01,2013-04-21 17:20:00,
2013-04-21 13:25:00,41.6,20.8,30.64,SSE,158,3.0,11.0,43,0.00,,,0.00,VWS V14.01,2013-04-21 17:25:00,
2013-04-21 13:30:00,42.0,18.9,30.64,SW,225,4.0,13.0,39,0.00,,,0.00,VWS V14.01,2013-04-21 17:30:00,
2013-04-21 13:35:00,42.1,19.0,30.64,SW,225,4.0,10.0,39,0.00,,,0.00,VWS V14.01,2013-04-21 17:35:00,
2013-04-21 13:40:00,42.0,18.9,30.64,WSW,248,4.0,11.0,39,0.00,,,0.00,VWS V14.01,2013-04-21 17:40:00,
2013-04-21 13:45:00,41.9,19.9,30.64,West,270,6.0,11.0,41,0.00,,,0.00,VWS V14.01,2013-04-21 17:45:00,
2013-04-21 13:50:00,41.9,19.4,30.64,WSW,248,4.0,12.0,40,0.00,,,0.00,VWS V14.01,2013-04-21 17:50:00,
2013-04-21 13:55:00,42.5,20.5,30.64,ESE,112,3.0,9.0,41,0.00,,,0.00,VWS V14.01,2013-04-21 17:55:00,
2013-04-21 14:00:00,43.1,19.2,30.64,SW,225,5.0,13.0,38,0.00,,,0.00,VWS V14.01,2013-04-21 18:00:00,
2013-04-21 14:08:00,43.1,19.2,30.64,SW,225,5.0,13.0,38,0.00,,,0.00,VWS V14.01,2013-04-21 18:08:00,
2013-04-21 14:09:00,42.9,17.8,30.64,SE,129,5.0,6.0,36,0.00,,,0.00,VWS V14.01,2013-04-21 18:09:00,
2013-04-21 14:10:00,43.0,17.9,30.64,SW,228,3.0,6.0,36,0.00,,,0.00,VWS V14.01,2013-04-21 18:10:00,
2013-04-21 14:13:00,43.7,22.7,30.64,ESE,106,4.0,9.0,43,0.00,,,0.00,VWS V14.01,2013-04-21 18:13:00,
2013-04-21 14:14:00,43.7,19.8,30.64,SE,125,4.0,9.0,38,0.00,,,0.00,VWS V14.01,2013-04-21 18:14:00,
2013-04-21 14:15:00,44.0,20.0,30.64,South,185,5.0,9.0,38,0.00,,,0.00,VWS V14.01,2013-04-21 18:15:00,
2013-04-21 14:19:00,43.7,17.9,30.64,West,261,0.0,17.0,35,0.00,,,0.00,VWS V14.01,2013-04-21 18:19:00,
2013-04-21 14:20:00,43.6,19.1,30.64,SSW,211,1.0,17.0,37,0.00,,,0.00,VWS V14.01,2013-04-21 18:20:00,
2013-04-21 14:24:00,43.5,20.8,30.64,SW,225,0.0,5.0,40,0.00,,,0.00,VWS V14.01,2013-04-21 18:24:00,
2013-04-21 14:25:00,43.7,20.4,30.64,East,92,0.0,10.0,39,0.00,,,0.00,VWS V14.01,2013-04-21 18:25:00,
2013-04-21 14:29:00,44.3,20.3,30.64,SW,214,10.0,11.0,38,0.00,,,0.00,VWS V14.01,2013-04-21 18:29:00,
2013-04-21 14:30:00,44.3,19.0,30.64,SW,236,9.0,11.0,36,0.00,,,0.00,VWS V14.01,2013-04-21 18:30:00,
2013-04-21 14:34:00,44.0,17.5,30.64,SW,225,5.0,15.0,34,0.00,,,0.00,VWS V14.01,2013-04-21 18:34:00,
2013-04-21 14:35:00,44.0,17.5,30.64,WNW,289,9.0,15.0,34,0.00,,,0.00,VWS V14.01,2013-04-21 18:35:00,
2013-04-21 14:39:00,43.6,17.1,30.64,South,173,4.0,11.0,34,0.00,,,0.00,VWS V14.01,2013-04-21 18:39:00,
2013-04-21 14:40:00,43.5,17.0,30.64,South,186,6.0,6.0,34,0.00,,,0.00,VWS V14.01,2013-04-21 18:40:00,
2013-04-21 14:44:00,43.6,19.7,30.64,SW,232,4.0,14.0,38,0.00,,,0.00,VWS V14.01,2013-04-21 18:44:00,
2013-04-21 14:45:00,43.7,18.5,30.64,WSW,257,5.0,5.0,36,0.00,,,0.00,VWS V14.01,2013-04-21 18:45:00,
2013-04-21 14:49:00,43.9,19.3,30.64,SSE,161,6.0,16.0,37,0.00,,,0.00,VWS V14.01,2013-04-21 18:49:00,
2013-04-21 14:50:00,44.0,18.8,30.64,WSW,254,7.0,9.0,36,0.00,,,0.00,VWS V14.01,2013-04-21 18:50:00,
2013-04-21 14:54:00,44.2,19.0,30.64,NW,304,4.0,10.0,36,0.00,,,0.00,VWS V14.01,2013-04-21 18:54:00,
2013-04-21 14:55:00,44.2,16.9,30.63,WSW,256,3.0,6.0,33,0.00,,,0.00,VWS V14.01,2013-04-21 18:55:00,
2013-04-21 14:59:00,44.0,17.5,30.63,SE,134,4.0,18.0,34,0.00,,,0.00,VWS V14.01,2013-04-21 18:59:00,
2013-04-21 15:00:00,44.0,17.5,30.63,ESE,123,3.0,18.0,34,0.00,,,0.00,VWS V14.01,2013-04-21 19:00:00,
2013-04-21 15:04:00,44.2,18.3,30.63,SE,141,1.0,10.0,35,0.00,,,0.00,VWS V14.01,2013-04-21 19:04:00,
2013-04-21 15:05:00,44.3,19.0,30.63,WSW,250,5.0,5.0,36,0.00,,,0.00,VWS V14.01,2013-04-21 19:05:00,
2013-04-21 15:09:00,44.3,18.4,30.63,West,278,10.0,11.0,35,0.00,,,0.00,VWS V14.01,2013-04-21 19:09:00,
2013-04-21 15:10:00,44.2,16.9,30.63,West,272,5.0,5.0,33,0.00,,,0.00,VWS V14.01,2013-04-21 19:10:00,
2013-04-21 15:14:00,44.1,18.9,30.63,West,263,0.0,6.0,36,0.00,,,0.00,VWS V14.01,2013-04-21 19:14:00,
2013-04-21 15:15:00,44.2,19.0,30.63,South,191,1.0,6.0,36,0.00,,,0.00,VWS V14.01,2013-04-21 19:15:00,
2013-04-21 15:16:00,44.5,19.9,30.63,West,269,3.0,5.0,37,0.00,,,0.00,VWS V14.01,2013-04-21 19:16:00,
2013-04-21 15:19:00,45.0,16.9,30.63,SW,227,6.0,12.0,32,0.00,,,0.00,VWS V14.01,2013-04-21 19:19:00,
2013-04-21 15:20:00,45.0,16.9,30.63,SW,227,4.0,5.0,32,0.00,,,0.00,VWS V14.01,2013-04-21 19:20:00,
2013-04-21 15:21:00,44.9,16.8,30.63,WSW,238,2.0,6.0,32,0.00,,,0.00,VWS V14.01,2013-04-21 19:21:00,
2013-04-21 15:25:00,45.0,18.3,30.63,WSW,252,9.0,9.0,34,0.00,,,0.00,VWS V14.01,2013-04-21 19:25:00,
2013-04-21 15:26:00,45.0,17.6,30.63,SW,229,1.0,9.0,33,0.00,,,0.00,VWS V14.01,2013-04-21 19:26:00,
2013-04-21 15:30:00,45.1,19.8,30.63,SSW,205,1.0,4.0,36,0.00,,,0.00,VWS V14.01,2013-04-21 19:30:00,
2013-04-21 15:32:00,45.2,17.8,30.63,West,265,3.0,9.0,33,0.00,,,0.00,VWS V14.01,2013-04-21 19:32:00,
2013-04-21 15:35:00,44.9,17.6,30.63,SW,233,0.0,1.0,33,0.00,,,0.00,VWS V14.01,2013-04-21 19:35:00,
2013-04-21 15:37:00,44.8,18.8,30.63,SW,232,11.0,11.0,35,0.00,,,0.00,VWS V14.01,2013-04-21 19:37:00,
2013-04-21 15:40:00,44.9,17.6,30.63,West,263,4.0,9.0,33,0.00,,,0.00,VWS V14.01,2013-04-21 19:40:00,
2013-04-21 15:41:00,44.9,16.8,30.63,West,267,2.0,9.0,32,0.00,,,0.00,VWS V14.01,2013-04-21 19:41:00,
2013-04-21 15:42:00,44.9,19.6,30.63,WNW,296,2.0,9.0,36,0.00,,,0.00,VWS V14.01,2013-04-21 19:42:00,
2013-04-21 15:45:00,45.1,17.7,30.63,East,98,3.0,5.0,33,0.00,,,0.00,VWS V14.01,2013-04-21 19:45:00,
2013-04-21 15:46:00,45.1,18.4,30.63,ESE,105,1.0,5.0,34,0.00,,,0.00,VWS V14.01,2013-04-21 19:46:00,
2013-04-21 15:47:00,45.2,18.5,30.62,SSE,159,4.0,5.0,34,0.00,,,0.00,VWS V14.01,2013-04-21 19:47:00,
2013-04-21 15:50:00,45.5,20.1,30.62,NW,312,9.0,9.0,36,0.00,,,0.00,VWS V14.01,2013-04-21 19:50:00,
2013-04-21 15:51:00,45.5,20.8,30.62,SW,221,2.0,9.0,37,0.00,,,0.00,VWS V14.01,2013-04-21 19:51:00,
2013-04-21 15:52:00,45.4,19.4,30.63,South,171,1.0,9.0,35,0.00,,,0.00,VWS V14.01,2013-04-21 19:52:00,
2013-04-21 15:55:00,45.3,18.6,30.63,ENE,74,2.0,9.0,34,0.00,,,0.00,VWS V14.01,2013-04-21 19:55:00,
2013-04-21 15:56:00,45.4,21.9,30.63,WSW,237,3.0,4.0,39,0.00,,,0.00,VWS V14.01,2013-04-21 19:56:00,
2013-04-21 15:57:00,45.5,20.1,30.63,SE,145,1.0,7.0,36,0.00,,,0.00,VWS V14.01,2013-04-21 19:57:00,
2013-04-21 16:00:00,45.9,20.5,30.62,SSE,150,0.0,7.0,36,0.00,,,0.00,VWS V14.01,2013-04-21 20:00:00,
2013-04-21 16:01:00,46.0,20.6,30.62,SSE,157,2.0,4.0,36,0.00,,,0.00,VWS V14.01,2013-04-21 20:01:00,
2013-04-21 16:02:00,46.1,19.3,30.62,ESE,119,2.0,5.0,34,0.00,,,0.00,VWS V14.01,2013-04-21 20:02:00,
2013-04-21 16:05:00,46.2,18.7,30.62,West,269,2.0,7.0,33,0.00,,,0.00,VWS V14.01,2013-04-21 20:05:00,
2013-04-21 16:06:00,46.3,20.8,30.62,SSW,210,1.0,10.0,36,0.00,,,0.00,VWS V14.01,2013-04-21 20:06:00,
2013-04-21 16:07:00,46.2,21.4,30.62,SE,128,3.0,10.0,37,0.00,,,0.00,VWS V14.01,2013-04-21 20:07:00,
2013-04-21 16:10:00,46.1,20.0,30.62,SSE,159,0.0,12.0,35,0.00,,,0.00,VWS V14.01,2013-04-21 20:10:00,
2013-04-21 16:11:00,46.0,19.2,30.62,South,172,2.0,9.0,34,0.00,,,0.00,VWS V14.01,2013-04-21 20:11:00,
2013-04-21 16:12:00,46.0,19.2,30.62,WSW,239,4.0,9.0,34,0.00,,,0.00,VWS V14.01,2013-04-21 20:12:00,
2013-04-21 16:15:00,45.6,17.5,30.62,WSW,250,2.0,9.0,32,0.00,,,0.00,VWS V14.01,2013-04-21 20:15:00,
2013-04-21 16:16:00,45.4,20.0,30.62,ENE,77,0.0,3.0,36,0.00,,,0.00,VWS V14.01,2013-04-21 20:16:00,
2013-04-21 16:17:00,45.4,20.0,30.62,ENE,76,1.0,3.0,36,0.00,,,0.00,VWS V14.01,2013-04-21 20:17:00,
2013-04-21 16:20:00,45.5,18.1,30.62,ESE,106,0.0,9.0,33,0.00,,,0.00,VWS V14.01,2013-04-21 20:20:00,
2013-04-21 16:22:00,45.6,18.9,30.62,South,188,1.0,5.0,34,0.00,,,0.00,VWS V14.01,2013-04-21 20:22:00,
2013-04-21 16:23:00,45.6,18.9,30.62,WSW,254,4.0,10.0,34,0.00,,,0.00,VWS V14.01,2013-04-21 20:23:00,
2013-04-21 16:25:00,45.5,18.1,30.62,ESE,107,0.0,10.0,33,0.00,,,0.00,VWS V14.01,2013-04-21 20:25:00,
2013-04-21 16:27:00,45.5,18.8,30.62,SW,227,5.0,10.0,34,0.00,,,0.00,VWS V14.01,2013-04-21 20:27:00,
2013-04-21 16:28:00,45.5,18.8,30.62,WSW,246,4.0,12.0,34,0.00,,,0.00,VWS V14.01,2013-04-21 20:28:00,
2013-04-21 16:30:00,45.5,20.1,30.62,ESE,123,2.0,12.0,36,0.00,,,0.00,VWS V14.01,2013-04-21 20:30:00,
2013-04-21 16:32:00,45.6,20.2,30.62,WSW,237,4.0,11.0,36,0.00,,,0.00,VWS V14.01,2013-04-21 20:32:00,
2013-04-21 16:33:00,45.6,18.9,30.62,WSW,241,6.0,11.0,34,0.00,,,0.00,VWS V14.01,2013-04-21 20:33:00,
2013-04-21 16:35:00,45.6,18.2,30.62,ENE,75,2.0,11.0,33,0.00,,,0.00,VWS V14.01,2013-04-21 20:35:00,
2013-04-21 16:37:00,45.6,19.5,30.62,SW,229,8.0,10.0,35,0.00,,,0.00,VWS V14.01,2013-04-21 20:37:00,
2013-04-21 16:38:00,45.6,18.2,30.62,SW,219,3.0,10.0,33,0.00,,,0.00,VWS V14.01,2013-04-21 20:38:00,
2013-04-21 16:40:00,45.4,18.0,30.62,East,98,3.0,10.0,33,0.00,,,0.00,VWS V14.01,2013-04-21 20:40:00,
2013-04-21 16:42:00,45.3,17.9,30.62,West,260,7.0,9.0,33,0.00,,,0.00,VWS V14.01,2013-04-21 20:42:00,
2013-04-21 16:43:00,45.2,17.8,30.62,WSW,238,11.0,11.0,33,0.00,,,0.00,VWS V14.01,2013-04-21 20:43:00,
2013-04-21 16:45:00,45.2,19.2,30.62,South,188,2.0,11.0,35,0.00,,,0.00,VWS V14.01,2013-04-21 20:45:00,
2013-04-21 16:47:00,45.1,18.4,30.62,South,175,7.0,11.0,34,0.00,,,0.00,VWS V14.01,2013-04-21 20:47:00,
2013-04-21 16:48:00,45.1,18.4,30.63,NNW,327,9.0,11.0,34,0.00,,,0.00,VWS V14.01,2013-04-21 20:48:00,
2013-04-21 16:50:00,45.1,18.4,30.62,ESE,102,4.0,11.0,34,0.00,,,0.00,VWS V14.01,2013-04-21 20:50:00,
2013-04-21 16:52:00,45.2,19.2,30.62,East,95,3.0,7.0,35,0.00,,,0.00,VWS V14.01,2013-04-21 20:52:00,
2013-04-21 16:53:00,45.2,19.9,30.63,East,95,1.0,7.0,36,0.00,,,0.00,VWS V14.01,2013-04-21 20:53:00,
2013-04-21 16:55:00,45.2,17.8,30.62,West,276,0.0,7.0,33,0.00,,,0.00,VWS V14.01,2013-04-21 20:55:00,
2013-04-21 16:57:00,45.2,18.5,30.63,South,180,7.0,10.0,34,0.00,,,0.00,VWS V14.01,2013-04-21 20:57:00,
2013-04-21 16:58:00,45.2,17.8,30.62,West,267,6.0,10.0,33,0.00,,,0.00,VWS V14.01,2013-04-21 20:58:00,
2013-04-21 16:59:00,45.1,17.7,30.62,SSW,209,1.0,10.0,33,0.00,,,0.00,VWS V14.01,2013-04-21 20:59:00,
2013-04-21 17:00:00,45.1,18.4,30.63,SW,225,5.0,13.0,34,0.00,,,0.00,VWS V14.01,2013-04-21 21:00:00,
2013-04-21 17:02:00,44.9,18.2,30.63,SW,223,2.0,9.0,34,0.00,,,0.00,VWS V14.01,2013-04-21 21:02:00,
2013-04-21 17:03:00,44.9,17.6,30.63,SW,222,1.0,9.0,33,0.00,,,0.00,VWS V14.01,2013-04-21 21:03:00,
2013-04-21 17:04:00,44.8,16.8,30.63,SSW,213,6.0,9.0,32,0.00,,,0.00,VWS V14.01,2013-04-21 21:04:00,
2013-04-21 17:05:00,44.7,17.4,30.63,SSW,212,2.0,9.0,33,0.00,,,0.00,VWS V14.01,2013-04-21 21:05:00,
2013-04-21 17:07:00,44.6,18.7,30.63,East,99,3.0,7.0,35,0.00,,,0.00,VWS V14.01,2013-04-21 21:07:00,
2013-04-21 17:08:00,44.6,18.7,30.63,SE,139,4.0,11.0,35,0.00,,,0.00,VWS V14.01,2013-04-21 21:08:00,
2013-04-21 17:09:00,44.7,19.4,30.63,SE,129,1.0,11.0,36,0.00,,,0.00,VWS V14.01,2013-04-21 21:09:00,
2013-04-21 17:10:00,44.7,18.1,30.62,SW,233,2.0,11.0,34,0.00,,,0.00,VWS V14.01,2013-04-21 21:10:00,
2013-04-21 17:12:00,44.7,17.4,30.63,WSW,249,7.0,12.0,33,0.00,,,0.00,VWS V14.01,2013-04-21 21:12:00,
2013-04-21 17:13:00,44.7,16.7,30.63,WSW,240,6.0,12.0,32,0.00,,,0.00,VWS V14.01,2013-04-21 21:13:00,
2013-04-21 17:14:00,44.7,16.7,30.63,ESE,107,3.0,12.0,32,0.00,,,0.00,VWS V14.01,2013-04-21 21:14:00,
2013-04-21 17:15:00,44.7,17.4,30.63,SSW,207,3.0,12.0,33,0.00,,,0.00,VWS V14.01,2013-04-21 21:15:00,
2013-04-21 17:17:00,44.7,16.7,30.63,West,281,0.0,7.0,32,0.00,,,0.00,VWS V14.01,2013-04-21 21:17:00,
2013-04-21 17:18:00,44.7,17.4,30.63,West,281,0.0,7.0,33,0.00,,,0.00,VWS V14.01,2013-04-21 21:18:00,
2013-04-21 17:19:00,44.8,16.8,30.63,NW,306,4.0,12.0,32,0.00,,,0.00,VWS V14.01,2013-04-21 21:19:00,
2013-04-21 17:20:00,44.8,16.0,30.63,ESE,103,4.0,12.0,31,0.00,,,0.00,VWS V14.01,2013-04-21 21:20:00,
2013-04-21 17:23:00,44.7,16.7,30.63,South,184,7.0,9.0,32,0.00,,,0.00,VWS V14.01,2013-04-21 21:23:00,
2013-04-21 17:24:00,44.7,16.7,30.63,ESE,105,0.0,9.0,32,0.00,,,0.00,VWS V14.01,2013-04-21 21:24:00,
2013-04-21 17:25:00,44.7,16.7,30.63,ESE,123,1.0,9.0,32,0.00,,,0.00,VWS V14.01,2013-04-21 21:25:00,
2013-04-21 17:28:00,44.8,16.0,30.62,SW,225,5.0,8.0,31,0.00,,,0.00,VWS V14.01,2013-04-21 21:28:00,
2013-04-21 17:29:00,44.9,15.4,30.62,ENE,61,3.0,8.0,30,0.00,,,0.00,VWS V14.01,2013-04-21 21:29:00,
2013-04-21 17:30:00,45.0,17.6,30.62,SE,134,2.0,8.0,33,0.00,,,0.00,VWS V14.01,2013-04-21 21:30:00,
2013-04-21 17:33:00,45.2,17.1,30.62,SSW,207,1.0,4.0,32,0.00,,,0.00,VWS V14.01,2013-04-21 21:33:00,
2013-04-21 17:34:00,45.4,17.3,30.62,East,84,3.0,4.0,32,0.00,,,0.00,VWS V14.01,2013-04-21 21:34:00,
2013-04-21 17:35:00,45.4,18.0,30.62,SSW,198,0.0,9.0,33,0.00,,,0.00,VWS V14.01,2013-04-21 21:35:00,
2013-04-21 17:38:00,45.5,18.8,30.62,SSW,195,2.0,5.0,34,0.00,,,0.00,VWS V14.01,2013-04-21 21:38:00,
2013-04-21 17:39:00,45.6,17.5,30.62,WSW,257,0.0,7.0,32,0.00,,,0.00,VWS V14.01,2013-04-21 21:39:00,
2013-04-21 17:40:00,45.6,16.0,30.62,SSW,198,4.0,7.0,30,0.00,,,0.00,VWS V14.01,2013-04-21 21:40:00,
2013-04-21 17:43:00,45.4,14.2,30.62,SW,221,1.0,6.0,28,0.00,,,0.00,VWS V14.01,2013-04-21 21:43:00,
2013-04-21 17:44:00,45.4,15.0,30.62,SW,215,0.0,6.0,29,0.00,,,0.00,VWS V14.01,2013-04-21 21:44:00,
2013-04-21 17:45:00,45.4,15.8,30.62,SW,219,2.0,6.0,30,0.00,,,0.00,VWS V14.01,2013-04-21 21:45:00,
2013-04-21 17:48:00,45.2,14.9,30.62,ESE,117,4.0,6.0,29,0.00,,,0.00,VWS V14.01,2013-04-21 21:48:00,
2013-04-21 17:49:00,45.2,16.4,30.62,ESE,121,4.0,7.0,31,0.00,,,0.00,VWS V14.01,2013-04-21 21:49:00,
2013-04-21 17:50:00,45.2,15.6,30.62,WSW,253,2.0,2.0,30,0.00,,,0.00,VWS V14.01,2013-04-21 21:50:00,
2013-04-21 17:53:00,45.1,15.5,30.62,SW,225,4.0,5.0,30,0.00,,,0.00,VWS V14.01,2013-04-21 21:53:00,
2013-04-21 17:54:00,45.1,15.5,30.62,SW,218,0.0,5.0,30,0.00,,,0.00,VWS V14.01,2013-04-21 21:54:00,
2013-04-21 17:55:00,45.2,15.6,30.62,SW,218,0.0,1.0,30,0.00,,,0.00,VWS V14.01,2013-04-21 21:55:00,
2013-04-21 17:58:00,45.2,14.9,30.62,ESE,121,3.0,11.0,29,0.00,,,0.00,VWS V14.01,2013-04-21 21:58:00,
2013-04-21 17:59:00,45.1,14.0,30.62,WSW,245,1.0,11.0,28,0.00,,,0.00,VWS V14.01,2013-04-21 21:59:00,
2013-04-21 18:00:00,45.1,14.8,30.63,South,169,1.0,5.0,29,0.00,,,0.00,VWS V14.01,2013-04-21 22:00:00,
2013-04-21 18:03:00,45.0,16.9,30.62,SSW,206,1.0,6.0,32,0.00,,,0.00,VWS V14.01,2013-04-21 22:03:00,
2013-04-21 18:04:00,45.1,16.3,30.62,SW,218,4.0,6.0,31,0.00,,,0.00,VWS V14.01,2013-04-21 22:04:00,
2013-04-21 18:05:00,45.1,15.5,30.62,SSW,213,3.0,5.0,30,0.00,,,0.00,VWS V14.01,2013-04-21 22:05:00,
2013-04-21 18:08:00,45.1,15.5,30.62,SW,214,4.0,5.0,30,0.00,,,0.00,VWS V14.01,2013-04-21 22:08:00,
2013-04-21 18:09:00,45.1,14.8,30.62,SW,226,1.0,5.0,29,0.00,,,0.00,VWS V14.01,2013-04-21 22:09:00,
2013-04-21 18:10:00,45.1,14.8,30.62,SW,225,2.0,2.0,29,0.00,,,0.00,VWS V14.01,2013-04-21 22:10:00,
2013-04-21 18:13:00,45.1,15.5,30.62,SW,227,0.0,5.0,30,0.00,,,0.00,VWS V14.01,2013-04-21 22:13:00,
2013-04-21 18:15:00,45.1,15.5,30.62,SW,215,5.0,5.0,30,0.00,,,0.00,VWS V14.01,2013-04-21 22:15:00,
2013-04-21 18:18:00,45.2,15.6,30.63,SW,232,3.0,9.0,30,0.00,,,0.00,VWS V14.01,2013-04-21 22:18:00,
2013-04-21 18:20:00,45.2,14.9,30.63,WSW,245,4.0,5.0,29,0.00,,,0.00,VWS V14.01,2013-04-21 22:20:00,
2013-04-21 18:24:00,45.1,14.8,30.63,WSW,248,3.0,9.0,29,0.00,,,0.00,VWS V14.01,2013-04-21 22:24:00,
2013-04-21 18:25:00,45.1,14.8,30.63,SSE,165,0.0,2.0,29,0.00,,,0.00,VWS V14.01,2013-04-21 22:25:00,
2013-04-21 18:26:00,45.1,14.0,30.63,NNE,15,0.0,5.0,28,0.00,,,0.00,VWS V14.01,2013-04-21 22:26:00,
2013-04-21 18:28:00,45.2,16.4,30.63,West,271,0.0,5.0,31,0.00,,,0.00,VWS V14.01,2013-04-21 22:28:00,
2013-04-21 18:30:00,45.2,15.6,30.63,SSW,192,0.0,4.0,30,0.00,,,0.00,VWS V14.01,2013-04-21 22:30:00,
2013-04-21 18:31:00,45.2,16.4,30.63,SSW,193,0.0,4.0,31,0.00,,,0.00,VWS V14.01,2013-04-21 22:31:00,
2013-04-21 18:33:00,45.4,17.3,30.63,ESE,112,4.0,4.0,32,0.00,,,0.00,VWS V14.01,2013-04-21 22:33:00,
2013-04-21 18:35:00,45.5,15.9,30.63,ESE,123,0.0,1.0,30,0.00,,,0.00,VWS V14.01,2013-04-21 22:35:00,
2013-04-21 18:36:00,45.5,15.9,30.63,ESE,123,0.0,1.0,30,0.00,,,0.00,VWS V14.01,2013-04-21 22:36:00,
2013-04-21 18:38:00,45.6,15.2,30.63,East,84,2.0,3.0,29,0.00,,,0.00,VWS V14.01,2013-04-21 22:38:00,
2013-04-21 18:40:00,45.7,16.8,30.63,SSW,202,4.0,6.0,31,0.00,,,0.00,VWS V14.01,2013-04-21 22:40:00,
2013-04-21 18:41:00,45.7,16.8,30.63,SSW,194,3.0,6.0,31,0.00,,,0.00,VWS V14.01,2013-04-21 22:41:00,
2013-04-21 18:44:00,45.6,15.2,30.63,WSW,246,1.0,6.0,29,0.00,,,0.00,VWS V14.01,2013-04-21 22:44:00,
2013-04-21 18:45:00,45.5,15.1,30.63,WSW,245,3.0,6.0,29,0.00,,,0.00,VWS V14.01,2013-04-21 22:45:00,
2013-04-21 18:46:00,45.5,16.6,30.63,ENE,71,0.0,3.0,31,0.00,,,0.00,VWS V14.01,2013-04-21 22:46:00,
2013-04-21 18:47:00,45.4,16.5,30.63,SSW,210,3.0,3.0,31,0.00,,,0.00,VWS V14.01,2013-04-21 22:47:00,
2013-04-21 18:50:00,45.4,15.0,30.63,SSW,202,2.0,7.0,29,0.00,,,0.00,VWS V14.01,2013-04-21 22:50:00,
2013-04-21 18:55:00,45.1,14.8,30.64,WNW,292,3.0,10.0,29,0.00,,,0.00,VWS V14.01,2013-04-21 22:55:00,
2013-04-21 19:00:00,44.6,16.6,30.64,WNW,292,1.0,5.0,32,0.00,,,0.00,VWS V14.01,2013-04-21 23:00:00,
2013-04-21 19:05:00,44.2,14.0,30.65,West,270,2.0,7.0,29,0.00,,,0.00,VWS V14.01,2013-04-21 23:05:00,
2013-04-21 19:10:00,43.8,13.6,30.65,West,270,1.0,5.0,29,0.00,,,0.00,VWS V14.01,2013-04-21 23:10:00,
2013-04-21 19:15:00,43.5,12.6,30.65,SW,225,2.0,7.0,28,0.00,,,0.00,VWS V14.01,2013-04-21 23:15:00,
2013-04-21 19:20:00,43.2,11.5,30.65,West,270,2.0,6.0,27,0.00,,,0.00,VWS V14.01,2013-04-21 23:20:00,
2013-04-21 19:25:00,43.1,14.5,30.65,SW,225,0.0,4.0,31,0.00,,,0.00,VWS V14.01,2013-04-21 23:25:00,
2013-04-21 19:30:00,42.8,14.3,30.65,SW,225,0.0,2.0,31,0.00,,,0.00,VWS V14.01,2013-04-21 23:30:00,
2013-04-21 19:35:00,42.5,16.8,30.66,SW,225,0.0,1.0,35,0.00,,,0.00,VWS V14.01,2013-04-21 23:35:00,
2013-04-21 19:40:00,42.0,18.9,30.66,SW,225,0.0,0.0,39,0.00,,,0.00,VWS V14.01,2013-04-21 23:40:00,
2013-04-21 19:45:00,41.4,18.3,30.66,SW,225,0.0,0.0,39,0.00,,,0.00,VWS V14.01,2013-04-21 23:45:00,
2013-04-21 19:50:00,40.6,18.8,30.66,SW,225,0.0,0.0,41,0.00,,,0.00,VWS V14.01,2013-04-21 23:50:00,
2013-04-21 19:55:00,39.9,19.2,30.67,SW,225,0.0,0.0,43,0.00,,,0.00,VWS V14.01,2013-04-21 23:55:00,
2013-04-21 20:00:00,39.0,18.4,30.67,SW,225,0.0,1.0,43,0.00,,,0.00,VWS V14.01,2013-04-22 00:00:00,
2013-04-21 20:05:00,38.1,17.6,30.67,SW,225,0.0,2.0,43,0.00,,,0.00,VWS V14.01,2013-04-22 00:05:00,
2013-04-21 20:10:00,37.4,17.5,30.67,SW,225,0.0,2.0,44,0.00,,,0.00,VWS V14.01,2013-04-22 00:10:00,
2013-04-21 20:15:00,36.9,17.0,30.67,SW,225,0.0,2.0,44,0.00,,,0.00,VWS V14.01,2013-04-22 00:15:00,
2013-04-21 20:20:00,36.4,16.6,30.67,SW,225,0.0,0.0,44,0.00,,,0.00,VWS V14.01,2013-04-22 00:20:00,
2013-04-21 20:25:00,36.1,17.3,30.68,SW,225,0.0,0.0,46,0.00,,,0.00,VWS V14.01,2013-04-22 00:25:00,
2013-04-21 20:30:00,35.8,17.6,30.68,SW,225,0.0,1.0,47,0.00,,,0.00,VWS V14.01,2013-04-22 00:30:00,
2013-04-21 20:35:00,35.4,17.2,30.68,SW,225,0.0,0.0,47,0.00,,,0.00,VWS V14.01,2013-04-22 00:35:00,
2013-04-21 20:40:00,35.0,17.8,30.68,SW,225,0.0,0.0,49,0.00,,,0.00,VWS V14.01,2013-04-22 00:40:00,
2013-04-21 20:45:00,34.7,17.0,30.68,SW,225,0.0,1.0,48,0.00,,,0.00,VWS V14.01,2013-04-22 00:45:00,
2013-04-21 20:50:00,34.4,17.7,30.68,SW,225,0.0,0.0,50,0.00,,,0.00,VWS V14.01,2013-04-22 00:50:00,
2013-04-21 20:55:00,34.2,17.5,30.68,SW,225,0.0,1.0,50,0.00,,,0.00,VWS V14.01,2013-04-22 00:55:00,
2013-04-21 21:00:00,33.9,17.2,30.68,SW,225,0.0,1.0,50,0.00,,,0.00,VWS V14.01,2013-04-22 01:00:00,
2013-04-21 21:05:00,33.7,17.5,30.68,SW,225,0.0,2.0,51,0.00,,,0.00,VWS V14.01,2013-04-22 01:05:00,
2013-04-21 21:10:00,33.5,16.9,30.69,SW,225,0.0,2.0,50,0.00,,,0.00,VWS V14.01,2013-04-22 01:10:00,
2013-04-21 21:15:00,33.6,17.0,30.69,SW,225,0.0,1.0,50,0.00,,,0.00,VWS V14.01,2013-04-22 01:15:00,
2013-04-21 21:20:00,33.4,16.8,30.69,SW,225,1.0,2.0,50,0.00,,,0.00,VWS V14.01,2013-04-22 01:20:00,
2013-04-21 21:25:00,33.4,16.3,30.69,SW,225,1.0,2.0,49,0.00,,,0.00,VWS V14.01,2013-04-22 01:25:00,
2013-04-21 21:30:00,33.1,18.3,30.69,SW,225,0.0,1.0,54,0.00,,,0.00,VWS V14.01,2013-04-22 01:30:00,
2013-04-21 21:35:00,32.8,18.0,30.69,SW,225,0.0,1.0,54,0.00,,,0.00,VWS V14.01,2013-04-22 01:35:00,
2013-04-21 21:40:00,32.5,17.7,30.69,SW,225,0.0,1.0,54,0.00,,,0.00,VWS V14.01,2013-04-22 01:40:00,
2013-04-21 21:45:00,32.4,18.0,30.69,SW,225,0.0,0.0,55,0.00,,,0.00,VWS V14.01,2013-04-22 01:45:00,
2013-04-21 21:50:00,32.2,17.9,30.69,SW,225,0.0,0.0,55,0.00,,,0.00,VWS V14.01,2013-04-22 01:50:00,
2013-04-21 21:55:00,31.9,17.6,30.69,SW,225,0.0,0.0,55,0.00,,,0.00,VWS V14.01,2013-04-22 01:55:00,
2013-04-21 22:00:00,31.8,17.9,30.70,SW,225,0.0,0.0,56,0.00,,,0.00,VWS V14.01,2013-04-22 02:00:00,
2013-04-21 22:05:00,31.7,17.0,30.70,WSW,248,0.0,1.0,54,0.00,,,0.00,VWS V14.01,2013-04-22 02:05:00,
2013-04-21 22:10:00,31.6,16.5,30.70,WSW,248,0.0,2.0,53,0.00,,,0.00,VWS V14.01,2013-04-22 02:10:00,
2013-04-21 22:15:00,31.6,17.7,30.70,WSW,248,1.0,2.0,56,0.00,,,0.00,VWS V14.01,2013-04-22 02:15:00,
2013-04-21 22:20:00,31.4,18.4,30.70,WSW,248,0.0,1.0,58,0.00,,,0.00,VWS V14.01,2013-04-22 02:20:00,
2013-04-21 22:25:00,31.1,18.1,30.70,WSW,248,0.0,1.0,58,0.00,,,0.00,VWS V14.01,2013-04-22 02:25:00,
2013-04-21 22:30:00,30.8,18.2,30.70,WSW,248,0.0,0.0,59,0.00,,,0.00,VWS V14.01,2013-04-22 02:30:00,
2013-04-21 22:35:00,30.6,17.6,30.70,WSW,248,0.0,0.0,58,0.00,,,0.00,VWS V14.01,2013-04-22 02:35:00,
2013-04-21 22:46:00,30.1,17.5,30.70,WSW,240,0.0,0.0,59,0.00,,,0.00,VWS V14.01,2013-04-22 02:46:00,
2013-04-21 22:50:00,29.8,17.2,30.70,WSW,240,0.0,0.0,59,0.00,,,0.00,VWS V14.01,2013-04-22 02:50:00,
2013-04-21 22:51:00,29.8,17.2,30.70,WSW,240,0.0,0.0,59,0.00,,,0.00,VWS V14.01,2013-04-22 02:51:00,
2013-04-21 22:55:00,29.6,17.4,30.70,WSW,240,0.0,0.0,60,0.00,,,0.00,VWS V14.01,2013-04-22 02:55:00,
2013-04-21 22:56:00,29.5,17.3,30.71,WSW,240,0.0,0.0,60,0.00,,,0.00,VWS V14.01,2013-04-22 02:56:00,
2013-04-21 22:57:00,29.5,17.7,30.71,WSW,240,0.0,0.0,61,0.00,,,0.00,VWS V14.01,2013-04-22 02:57:00,
2013-04-21 23:00:00,29.4,18.0,30.71,WSW,240,0.0,0.0,62,0.00,,,0.00,VWS V14.01,2013-04-22 03:00:00,
2013-04-21 23:01:00,29.3,17.9,30.71,WSW,240,0.0,0.0,62,0.00,,,0.00,VWS V14.01,2013-04-22 03:01:00,
2013-04-21 23:02:00,29.3,17.5,30.71,WSW,240,0.0,0.0,61,0.00,,,0.00,VWS V14.01,2013-04-22 03:02:00,
2013-04-21 23:05:00,29.2,17.1,30.71,WSW,240,0.0,0.0,60,0.00,,,0.00,VWS V14.01,2013-04-22 03:05:00,
2013-04-21 23:06:00,29.2,17.1,30.70,WSW,240,0.0,0.0,60,0.00,,,0.00,VWS V14.01,2013-04-22 03:06:00,
2013-04-21 23:07:00,29.2,17.1,30.70,WSW,240,0.0,0.0,60,0.00,,,0.00,VWS V14.01,2013-04-22 03:07:00,
2013-04-21 23:10:00,29.0,16.9,30.71,WSW,240,0.0,0.0,60,0.00,,,0.00,VWS V14.01,2013-04-22 03:10:00,
2013-04-21 23:11:00,29.0,17.2,30.71,WSW,240,0.0,0.0,61,0.00,,,0.00,VWS V14.01,2013-04-22 03:11:00,
2013-04-21 23:12:00,29.0,17.2,30.71,WSW,240,0.0,0.0,61,0.00,,,0.00,VWS V14.01,2013-04-22 03:12:00,
2013-04-21 23:15:00,28.8,17.1,30.71,WSW,240,0.0,2.0,61,0.00,,,0.00,VWS V14.01,2013-04-22 03:15:00,
2013-04-21 23:16:00,28.8,17.1,30.71,WSW,240,0.0,0.0,61,0.00,,,0.00,VWS V14.01,2013-04-22 03:16:00,
2013-04-21 23:17:00,28.8,17.1,30.71,WSW,240,0.0,0.0,61,0.00,,,0.00,VWS V14.01,2013-04-22 03:17:00,
2013-04-21 23:20:00,28.7,17.7,30.71,WSW,240,0.0,0.0,63,0.00,,,0.00,VWS V14.01,2013-04-22 03:20:00,
2013-04-21 23:21:00,28.7,17.7,30.71,WSW,240,0.0,0.0,63,0.00,,,0.00,VWS V14.01,2013-04-22 03:21:00,
2013-04-21 23:22:00,28.7,17.3,30.71,WSW,240,0.0,0.0,62,0.00,,,0.00,VWS V14.01,2013-04-22 03:22:00,
2013-04-21 23:25:00,28.7,17.7,30.71,North,0,0.0,0.0,63,0.00,,,0.00,VWS V14.01,2013-04-22 03:25:00,
2013-04-21 23:30:00,28.8,17.8,30.71,North,0,0.0,0.0,63,0.00,,,0.00,VWS V14.01,2013-04-22 03:30:00,
2013-04-21 23:35:00,28.6,17.6,30.71,North,0,0.0,0.0,63,0.00,,,0.00,VWS V14.01,2013-04-22 03:35:00,
2013-04-21 23:40:00,28.4,16.7,30.71,North,0,0.0,0.0,61,0.00,,,0.00,VWS V14.01,2013-04-22 03:40:00,
2013-04-21 23:45:00,28.2,16.9,30.71,WSW,248,0.0,2.0,62,0.00,,,0.00,VWS V14.01,2013-04-22 03:45:00,
2013-04-21 23:50:00,28.3,17.3,30.71,WSW,248,0.0,2.0,63,0.00,,,0.00,VWS V14.01,2013-04-22 03:50:00,
2013-04-21 23:55:00,28.4,16.7,30.71,WSW,248,0.0,1.0,61,0.00,,,0.00,VWS V14.01,2013-04-22 03:55:00,